^^
B2 Weather Station Historical Data
Daily Summary for June 8, 2018 Units:  English    Metric   Both
Daily Weekly Monthly Yearly Custom
  High: Low: Average:
Temperature: 79.5 °F 60.1 °F 76.9 °F
Dew Point: 68.6 °F 55.5 °F 65.8 °F
Humidity: 90% 63% 69%
Wind Speed: 12.7mph 0.0mph 5.7mph
Wind Gust: 8.4mph - -
Wind- - East
Pressure: 30.17 in 30.04 in -
Precipitation: 0.14 in    
Historical Graphs
 
 
Tabular Data for June 8, 2018
Time Temperature Dew Point Pressure Wind Wind Speed Wind Gust Humidity Rainfall Rate (Hourly) solar
00:04 62.5 °F 57.9 °F 30.06 in NNE 4.6 mph 2.0 mph 85% 0.00 in 0.00 W/m2
00:09 62.4 °F 57.8 °F 30.06 in NNE 3.5 mph 1.0 mph 85% 0.00 in 0.00 W/m2
00:14 62.3 °F 57.7 °F 30.06 in NNE 4.0 mph 2.9 mph 85% 0.00 in 0.00 W/m2
00:19 62.3 °F 57.7 °F 30.06 in NNE 2.3 mph   85% 0.00 in 0.00 W/m2
00:24 62.2 °F 57.6 °F 30.06 in NNE 6.9 mph 1.0 mph 85% 0.00 in 0.00 W/m2
00:29 62.1 °F 57.2 °F 30.06 in North 6.9 mph 3.3 mph 84% 0.00 in 0.00 W/m2
00:34 62.1 °F 57.2 °F 30.06 in North 6.9 mph 3.3 mph 84% 0.00 in 0.00 W/m2
00:39 62.1 °F 56.9 °F 30.06 in NNE 4.6 mph 0.9 mph 83% 0.00 in 0.00 W/m2
00:44 62.0 °F 56.8 °F 30.06 in North 8.1 mph 2.1 mph 83% 0.00 in 0.00 W/m2
00:49 61.9 °F 56.7 °F 30.06 in NNE 3.5 mph   83% 0.00 in 0.00 W/m2
00:54 61.9 °F 56.7 °F 30.06 in NNE 6.0 mph 0.9 mph 83% 0.00 in 0.00 W/m2
00:59 61.7 °F 56.1 °F 30.05 in NNE 5.8 mph 1.7 mph 82% 0.00 in 0.00 W/m2
01:04 61.6 °F 56.4 °F 30.06 in Calm     83% 0.00 in 0.00 W/m2
01:09 61.6 °F 56.4 °F 30.06 in Calm     83% 0.00 in 0.00 W/m2
01:14 61.5 °F 56.3 °F 30.06 in Calm     83% 0.00 in 0.00 W/m2
01:19 61.3 °F 56.1 °F 30.06 in Calm     83% 0.00 in 0.00 W/m2
01:24 61.2 °F 56.0 °F 30.06 in Calm     83% 0.00 in 0.00 W/m2
01:29 61.0 °F 55.8 °F 30.06 in Calm     83% 0.00 in 0.00 W/m2
01:34 60.8 °F 55.9 °F 30.06 in Calm     84% 0.00 in 0.00 W/m2
01:39 60.7 °F 55.8 °F 30.05 in Calm     84% 0.00 in 0.00 W/m2
01:44 60.5 °F 55.6 °F 30.05 in Calm   0.4 mph 84% 0.00 in 0.00 W/m2
01:49 60.4 °F 55.5 °F 30.06 in Calm     84% 0.00 in 0.00 W/m2
01:54 60.3 °F 55.8 °F 30.05 in Calm     85% 0.00 in 0.00 W/m2
01:59 60.2 °F 55.7 °F 30.05 in Calm     85% 0.00 in 0.00 W/m2
02:04 60.1 °F 55.6 °F 30.05 in Calm     85% 0.00 in 0.00 W/m2
02:05 60.1 °F 55.6 °F 30.05 in Calm     85% 0.00 in 0.00 W/m2
07:49 64.8 °F 57.1 °F 30.09 in Calm     76% 0.00 in 77.00 W/m2
07:54 64.8 °F 57.1 °F 30.09 in NNE 3.5 mph 0.1 mph 76% 0.00 in 79.00 W/m2
07:59 64.9 °F 57.5 °F 30.10 in NNE 4.0 mph 0.8 mph 77% 0.00 in 81.00 W/m2
08:04 64.9 °F 57.2 °F 30.09 in NE 1.2 mph 0.1 mph 76% 0.00 in 83.00 W/m2
08:09 65.0 °F 57.2 °F 30.09 in NE 2.3 mph 0.2 mph 76% 0.00 in 83.00 W/m2
08:14 65.0 °F 56.9 °F 30.10 in NNE 3.5 mph 0.2 mph 75% 0.00 in 74.00 W/m2
08:19 65.1 °F 56.6 °F 30.13 in WNW 11.5 mph 4.9 mph 74% 0.00 in 44.00 W/m2
08:24 65.1 °F 57.0 °F 30.12 in WNW 3.5 mph   75% 0.00 in 35.00 W/m2
08:29 64.9 °F 56.4 °F 30.13 in NW 5.8 mph 2.6 mph 74% 0.00 in 37.00 W/m2
08:34 64.8 °F 56.3 °F 30.13 in NW 10.4 mph 1.2 mph 74% 0.00 in 30.00 W/m2
08:39 64.5 °F 57.1 °F 30.13 in NW 8.1 mph 3.2 mph 77% 0.01 in 26.00 W/m2
08:44 63.6 °F 57.3 °F 30.13 in NW 11.5 mph 2.7 mph 80% 0.08 in 23.00 W/m2
08:49 63.1 °F 57.5 °F 30.13 in NNW 11.5 mph 2.4 mph 82% 0.12 in 16.00 W/m2
08:54 62.9 °F 58.0 °F 30.13 in NNW 6.0 mph 4.0 mph 84% 0.12 in 14.00 W/m2
08:59 62.9 °F 58.0 °F 30.11 in NNE 5.8 mph 3.6 mph 84% 0.12 in 30.00 W/m2
09:04 62.7 °F 58.1 °F 30.11 in North 9.2 mph 6.4 mph 85% 0.12 in 67.00 W/m2
09:09 62.8 °F 58.2 °F 30.11 in North 12.7 mph 8.4 mph 85% 0.12 in 63.00 W/m2
09:14 62.9 °F 58.0 °F 30.12 in NNW 11.5 mph 6.8 mph 84% 0.12 in 49.00 W/m2
09:19 62.7 °F 58.5 °F 30.12 in NNW 9.2 mph 3.4 mph 86% 0.12 in 72.00 W/m2
09:24 62.5 °F 58.3 °F 30.12 in North 8.1 mph 4.0 mph 86% 0.12 in 118.00 W/m2
09:29 62.5 °F 58.6 °F 30.11 in NNE 3.5 mph 2.1 mph 87% 0.12 in 116.00 W/m2
09:34 62.5 °F 58.9 °F 30.11 in ENE 8.0 mph 3.6 mph 88% 0.12 in 114.00 W/m2
09:39 62.6 °F 59.0 °F 30.11 in North 4.6 mph 0.7 mph 88% 0.11 in 91.00 W/m2
09:44 62.7 °F 59.1 °F 30.12 in NNE 1.2 mph   88% 0.04 in 105.00 W/m2
09:49 63.0 °F 59.4 °F 30.12 in Calm     88% 0.00 in 149.00 W/m2
09:54 63.4 °F 60.1 °F 30.11 in NNE 3.5 mph 1.2 mph 89% 0.00 in 169.00 W/m2
09:59 63.7 °F 60.1 °F 30.11 in NE 2.3 mph   88% 0.00 in 190.00 W/m2
10:04 64.1 °F 60.2 °F 30.11 in NE 6.9 mph 2.6 mph 87% 0.00 in 216.00 W/m2
10:09 64.5 °F 60.5 °F 30.11 in NE 8.0 mph 7.5 mph 87% 0.00 in 246.00 W/m2
10:14 64.9 °F 60.9 °F 30.11 in ENE 4.6 mph 3.1 mph 87% 0.00 in 271.00 W/m2
10:19 65.3 °F 60.7 °F 30.11 in ENE 9.2 mph 3.3 mph 85% 0.00 in 290.00 W/m2
10:24 65.7 °F 61.1 °F 30.10 in ENE 8.1 mph 5.8 mph 85% 0.00 in 311.00 W/m2
10:29 66.3 °F 61.7 °F 30.11 in NE 9.2 mph 0.3 mph 85% 0.00 in 336.00 W/m2
10:34 66.9 °F 61.9 °F 30.11 in ENE 4.6 mph 2.5 mph 84% 0.00 in 378.00 W/m2
10:39 67.9 °F 62.2 °F 30.10 in ENE 7.0 mph 5.8 mph 82% 0.00 in 431.00 W/m2
10:44 68.8 °F 63.1 °F 30.11 in East 5.8 mph 3.3 mph 82% 0.00 in 394.00 W/m2
10:49 69.4 °F 63.3 °F 30.11 in NE 9.2 mph 6.0 mph 81% 0.00 in 485.00 W/m2
10:54 70.0 °F 64.2 °F 30.11 in NE 6.9 mph 3.0 mph 82% 0.00 in 536.00 W/m2
10:59 70.9 °F 65.1 °F 30.11 in ENE 8.1 mph 4.1 mph 82% 0.00 in 561.00 W/m2
11:04 71.3 °F 64.4 °F 30.11 in East 6.9 mph 3.2 mph 79% 0.00 in 452.00 W/m2
11:09 71.4 °F 63.8 °F 30.11 in East 8.1 mph 6.2 mph 77% 0.00 in 469.00 W/m2
11:14 71.3 °F 63.0 °F 30.11 in ENE 10.4 mph 5.5 mph 75% 0.00 in 417.00 W/m2
11:19 71.4 °F 63.4 °F 30.11 in East 9.2 mph 6.2 mph 76% 0.00 in 524.00 W/m2
11:24 71.8 °F 64.6 °F 30.11 in East 9.0 mph 5.4 mph 78% 0.00 in 515.00 W/m2
11:29 72.1 °F 63.7 °F 30.12 in ENE 8.1 mph 5.8 mph 75% 0.00 in 366.00 W/m2
11:34 72.4 °F 64.4 °F 30.12 in North 4.6 mph 1.1 mph 76% 0.00 in 304.00 W/m2
11:39 72.8 °F 65.2 °F 30.13 in Calm     77% 0.00 in 211.00 W/m2
11:44 72.6 °F 64.2 °F 30.14 in NNW 4.0 mph 2.5 mph 75% 0.00 in 169.00 W/m2
11:49 72.0 °F 64.0 °F 30.16 in NNW 6.9 mph 3.4 mph 76% 0.00 in 142.00 W/m2
11:54 71.5 °F 63.5 °F 30.17 in North 10.4 mph 6.0 mph 76% 0.00 in 97.00 W/m2
11:59 71.0 °F 63.4 °F 30.17 in NNW 6.9 mph 2.4 mph 77% 0.00 in 63.00 W/m2
12:04 70.5 °F 63.3 °F 30.16 in NNW 9.2 mph 6.8 mph 78% 0.00 in 62.00 W/m2
12:09 70.1 °F 63.6 °F 30.15 in NW 6.9 mph 3.1 mph 80% 0.00 in 69.00 W/m2
12:14 69.8 °F 64.1 °F 30.14 in North 1.0 mph 0.8 mph 82% 0.01 in 62.00 W/m2
12:19 69.3 °F 64.3 °F 30.12 in NE 1.2 mph 0.5 mph 84% 0.01 in 69.00 W/m2
12:24 68.8 °F 64.4 °F 30.11 in NE 3.5 mph 0.5 mph 86% 0.02 in 84.00 W/m2
12:29 68.3 °F 64.3 °F 30.10 in ENE 9.2 mph 7.4 mph 87% 0.02 in 125.00 W/m2
12:34 68.0 °F 64.6 °F 30.11 in ENE 4.6 mph 3.4 mph 89% 0.02 in 179.00 W/m2
12:39 67.9 °F 64.5 °F 30.11 in Calm     89% 0.02 in 244.00 W/m2
12:44 68.3 °F 64.9 °F 30.12 in Calm     89% 0.02 in 311.00 W/m2
12:49 68.9 °F 65.8 °F 30.11 in Calm     90% 0.02 in 397.00 W/m2
12:54 69.7 °F 66.3 °F 30.11 in NE 3.5 mph 1.8 mph 89% 0.02 in 524.00 W/m2
12:59 70.4 °F 67.0 °F 30.11 in ENE 4.6 mph 0.4 mph 89% 0.02 in 515.00 W/m2
13:04 70.9 °F 66.5 °F 30.11 in Calm     86% 0.02 in 584.00 W/m2
13:09 71.5 °F 66.8 °F 30.11 in ENE 3.5 mph 0.7 mph 85% 0.02 in 682.00 W/m2
13:14 72.2 °F 66.7 °F 30.11 in ENE 5.8 mph 4.4 mph 83% 0.01 in 770.00 W/m2
13:19 72.8 °F 67.0 °F 30.11 in ENE 2.0 mph 1.4 mph 82% 0.01 in 795.00 W/m2
13:24 73.2 °F 67.0 °F 30.10 in ENE 2.3 mph   81% 0.00 in 459.00 W/m2
13:29 73.4 °F 66.5 °F 30.10 in ENE 8.1 mph 5.1 mph 79% 0.00 in 824.00 W/m2
13:34 74.0 °F 67.1 °F 30.10 in NE 3.5 mph 0.7 mph 79% 0.00 in 953.00 W/m2
13:39 74.8 °F 68.2 °F 30.09 in East 6.0 mph 6.1 mph 80% 0.00 in 759.00 W/m2
13:44 75.6 °F 68.6 °F 30.09 in East 8.1 mph 5.0 mph 79% 0.00 in 921.00 W/m2
13:49 76.0 °F 67.9 °F 30.09 in ENE 8.1 mph 2.7 mph 76% 0.00 in 540.00 W/m2
13:54 76.8 °F 67.9 °F 30.09 in East 9.2 mph 4.1 mph 74% 0.00 in 886.00 W/m2
13:59 77.3 °F 68.0 °F 30.09 in ENE 4.6 mph 3.4 mph 73% 0.00 in 545.00 W/m2
14:04 77.3 °F 68.0 °F 30.09 in East 4.6 mph 3.4 mph 73% 0.00 in 598.00 W/m2
14:09 77.2 °F 67.5 °F 30.09 in ENE 6.9 mph 4.2 mph 72% 0.00 in 729.00 W/m2
14:14 77.5 °F 66.9 °F 30.08 in NE 8.1 mph 4.7 mph 70% 0.00 in 550.00 W/m2
14:19 77.8 °F 66.8 °F 30.08 in ESE 9.2 mph 5.6 mph 69% 0.00 in 550.00 W/m2
14:24 78.4 °F 67.8 °F 30.08 in ENE 9.2 mph 4.5 mph 70% 0.00 in 758.00 W/m2
14:29 79.1 °F 68.1 °F 30.09 in NE 6.0 mph 4.2 mph 69% 0.00 in 548.00 W/m2
14:34 79.3 °F 67.8 °F 30.08 in NE 4.6 mph 2.3 mph 68% 0.00 in 557.00 W/m2
14:39 79.5 °F 67.6 °F 30.08 in East 5.8 mph 3.3 mph 67% 0.00 in 506.00 W/m2
14:44 79.2 °F 66.9 °F 30.08 in ESE 6.9 mph 2.1 mph 66% 0.00 in 429.00 W/m2
14:49 78.8 °F 66.5 °F 30.08 in East 8.0 mph 4.4 mph 66% 0.00 in 387.00 W/m2
14:54 78.4 °F 66.1 °F 30.07 in East 4.6 mph 3.1 mph 66% 0.00 in 327.00 W/m2
14:59 78.3 °F 66.4 °F 30.07 in ENE 6.9 mph 4.0 mph 67% 0.00 in 322.00 W/m2
15:04 78.1 °F 65.4 °F 30.07 in ESE 8.1 mph 5.3 mph 65% 0.00 in 339.00 W/m2
15:09 77.9 °F 65.6 °F 30.07 in East 5.8 mph 5.2 mph 66% 0.00 in 369.00 W/m2
15:14 78.0 °F 65.3 °F 30.07 in East 8.1 mph 5.5 mph 65% 0.00 in 339.00 W/m2
15:19 78.2 °F 66.3 °F 30.07 in ENE 6.9 mph 4.2 mph 67% 0.00 in 283.00 W/m2
15:24 78.4 °F 66.1 °F 30.07 in East 6.9 mph 2.5 mph 66% 0.00 in 278.00 W/m2
15:29 78.5 °F 65.8 °F 30.06 in East 6.9 mph 5.3 mph 65% 0.00 in 281.00 W/m2
15:34 78.5 °F 65.8 °F 30.06 in ESE 6.9 mph 2.3 mph 65% 0.00 in 278.00 W/m2
15:39 78.6 °F 65.8 °F 30.07 in East 8.1 mph 2.7 mph 65% 0.00 in 255.00 W/m2
15:44 78.6 °F 65.8 °F 30.07 in East 3.5 mph 1.7 mph 65% 0.00 in 243.00 W/m2
15:49 78.6 °F 66.3 °F 30.06 in East 4.6 mph 3.6 mph 66% 0.00 in 236.00 W/m2
15:54 78.6 °F 66.3 °F 30.06 in Calm     66% 0.00 in 225.00 W/m2
15:59 78.5 °F 66.2 °F 30.06 in East 5.8 mph 3.5 mph 66% 0.00 in 237.00 W/m2
16:04 78.5 °F 67.1 °F 30.06 in ENE 5.8 mph 4.4 mph 68% 0.00 in 278.00 W/m2
16:09 78.5 °F 66.6 °F 30.06 in ENE 5.8 mph 4.6 mph 67% 0.00 in 313.00 W/m2
16:14 78.5 °F 66.6 °F 30.06 in ENE 9.2 mph 6.0 mph 67% 0.00 in 309.00 W/m2
16:19 78.6 °F 66.7 °F 30.06 in East 6.9 mph 4.6 mph 67% 0.00 in 276.00 W/m2
16:24 78.4 °F 66.1 °F 30.06 in ENE 4.6 mph 3.6 mph 66% 0.00 in 218.00 W/m2
16:29 78.2 °F 65.5 °F 30.06 in ENE 6.9 mph 4.9 mph 65% 0.00 in 165.00 W/m2
16:34 77.9 °F 65.6 °F 30.06 in East 5.0 mph 3.3 mph 66% 0.00 in 162.00 W/m2
16:39 77.8 °F 65.5 °F 30.06 in ENE 4.0 mph 1.9 mph 66% 0.00 in 199.00 W/m2
16:44 77.8 °F 66.0 °F 30.06 in East 5.0 mph 4.2 mph 67% 0.00 in 214.00 W/m2
16:46 77.8 °F 66.0 °F 30.06 in East 6.9 mph 3.4 mph 67% 0.00 in 213.00 W/m2
16:46 77.8 °F 66.0 °F 30.06 in East 4.6 mph 3.4 mph 67% 0.00 in 213.00 W/m2
16:46 77.8 °F 66.0 °F 30.06 in ENE 4.6 mph 3.1 mph 67% 0.00 in 213.00 W/m2
16:46 77.8 °F 66.0 °F 30.06 in ENE 4.6 mph 3.0 mph 67% 0.00 in 213.00 W/m2
16:46 77.8 °F 66.0 °F 30.06 in East 4.6 mph 2.9 mph 67% 0.00 in 213.00 W/m2
16:46 77.8 °F 66.0 °F 30.06 in East 4.6 mph 2.7 mph 67% 0.00 in 213.00 W/m2
16:46 77.8 °F 66.0 °F 30.06 in East 4.6 mph 2.6 mph 67% 0.00 in 213.00 W/m2
16:46 77.8 °F 66.0 °F 30.06 in East 4.6 mph 2.2 mph 67% 0.00 in 213.00 W/m2
16:46 77.8 °F 66.0 °F 30.06 in East 4.6 mph 2.2 mph 67% 0.00 in 211.00 W/m2
16:46 77.8 °F 66.0 °F 30.06 in East 4.6 mph 1.8 mph 67% 0.00 in 211.00 W/m2
16:46 77.8 °F 66.0 °F 30.06 in East 4.6 mph 1.6 mph 67% 0.00 in 211.00 W/m2
16:47 77.8 °F 66.0 °F 30.06 in ENE 4.6 mph 1.4 mph 67% 0.00 in 211.00 W/m2
16:47 77.8 °F 66.0 °F 30.06 in ENE 3.5 mph 1.4 mph 67% 0.00 in 211.00 W/m2
16:47 77.8 °F 66.0 °F 30.06 in ENE 3.5 mph 1.1 mph 67% 0.00 in 211.00 W/m2
16:47 77.8 °F 66.4 °F 30.06 in East 3.5 mph 1.0 mph 68% 0.00 in 211.00 W/m2
16:47 77.8 °F 66.4 °F 30.06 in East 3.5 mph 0.8 mph 68% 0.00 in 211.00 W/m2
16:47 77.9 °F 66.5 °F 30.06 in East 3.5 mph 0.6 mph 68% 0.00 in 211.00 W/m2
16:47 77.9 °F 66.5 °F 30.06 in ENE 3.5 mph 0.6 mph 68% 0.00 in 214.00 W/m2
16:47 77.8 °F 66.4 °F 30.06 in ENE 3.5 mph 0.7 mph 68% 0.00 in 214.00 W/m2
16:47 77.8 °F 66.4 °F 30.06 in East 3.5 mph 0.8 mph 68% 0.00 in 214.00 W/m2
16:47 77.8 °F 66.4 °F 30.06 in East 3.5 mph 0.8 mph 68% 0.00 in 214.00 W/m2
16:47 77.9 °F 66.5 °F 30.06 in East 3.5 mph 1.1 mph 68% 0.00 in 214.00 W/m2
16:47 77.9 °F 66.5 °F 30.06 in East 3.5 mph 1.3 mph 68% 0.00 in 214.00 W/m2
16:47 77.9 °F 66.5 °F 30.06 in East 3.5 mph 1.4 mph 68% 0.00 in 214.00 W/m2
16:48 77.9 °F 66.5 °F 30.06 in East 3.5 mph 1.4 mph 68% 0.00 in 214.00 W/m2
16:48 77.9 °F 66.5 °F 30.06 in East 3.5 mph 1.4 mph 68% 0.00 in 214.00 W/m2
16:48 77.9 °F 66.5 °F 30.06 in North 4.0 mph 1.7 mph 68% 0.00 in 214.00 W/m2
16:48 77.9 °F 66.5 °F 30.06 in East 6.0 mph 2.4 mph 68% 0.00 in 214.00 W/m2
16:48 77.9 °F 66.5 °F 30.06 in East 7.0 mph 2.8 mph 68% 0.00 in 213.00 W/m2
16:48 77.9 °F 66.5 °F 30.06 in East 6.0 mph 3.2 mph 68% 0.00 in 213.00 W/m2
16:48 77.9 °F 66.5 °F 30.06 in East 5.0 mph 3.4 mph 68% 0.00 in 213.00 W/m2
16:48 77.9 °F 66.5 °F 30.06 in East 5.0 mph 3.6 mph 68% 0.00 in 213.00 W/m2
16:48 77.9 °F 66.5 °F 30.06 in East 3.5 mph 3.6 mph 68% 0.00 in 213.00 W/m2
16:48 77.9 °F 66.5 °F 30.06 in East 3.5 mph 3.6 mph 68% 0.00 in 213.00 W/m2
16:48 77.9 °F 66.5 °F 30.06 in East 3.5 mph 3.5 mph 68% 0.00 in 213.00 W/m2
16:48 77.9 °F 66.5 °F 30.06 in East 3.5 mph 3.5 mph 68% 0.00 in 213.00 W/m2
16:48 77.9 °F 66.1 °F 30.06 in East 5.0 mph 3.6 mph 67% 0.00 in 213.00 W/m2
16:49 77.9 °F 66.1 °F 30.06 in ENE 6.9 mph 3.8 mph 67% 0.00 in 213.00 W/m2
16:49 77.9 °F 66.1 °F 30.06 in East 6.9 mph 3.8 mph 67% 0.00 in 213.00 W/m2
16:49 77.9 °F 66.1 °F 30.06 in East 6.9 mph 4.0 mph 67% 0.00 in 213.00 W/m2
16:49 77.9 °F 66.1 °F 30.06 in East 6.9 mph 4.1 mph 67% 0.00 in 213.00 W/m2
16:49 77.9 °F 66.1 °F 30.06 in ESE 6.9 mph 4.2 mph 67% 0.00 in 211.00 W/m2
16:49 77.9 °F 66.1 °F 30.06 in East 6.9 mph 4.3 mph 67% 0.00 in 211.00 W/m2
16:49 77.9 °F 66.1 °F 30.06 in East 6.9 mph 4.2 mph 67% 0.00 in 211.00 W/m2
16:49 77.9 °F 66.1 °F 30.06 in East 7.0 mph 4.2 mph 67% 0.00 in 211.00 W/m2
16:49 77.9 °F 66.1 °F 30.06 in ENE 6.9 mph 4.2 mph 67% 0.00 in 211.00 W/m2
16:49 77.9 °F 66.1 °F 30.06 in ENE 6.9 mph 4.2 mph 67% 0.00 in 211.00 W/m2
16:49 77.9 °F 66.1 °F 30.06 in ENE 6.9 mph 4.1 mph 67% 0.00 in 211.00 W/m2
16:49 77.9 °F 65.6 °F 30.06 in ESE 6.9 mph 4.1 mph 66% 0.00 in 211.00 W/m2
16:49 77.9 °F 65.6 °F 30.06 in ESE 6.9 mph 4.0 mph 66% 0.00 in 211.00 W/m2
16:49 77.9 °F 65.6 °F 30.06 in ESE 6.9 mph 4.0 mph 66% 0.00 in 211.00 W/m2
16:50 77.9 °F 65.6 °F 30.06 in East 6.9 mph 3.9 mph 66% 0.00 in 211.00 W/m2
16:50 77.9 °F 65.6 °F 30.06 in East 6.9 mph 3.8 mph 66% 0.00 in 209.00 W/m2
16:50 77.9 °F 65.6 °F 30.06 in East 6.9 mph 3.7 mph 66% 0.00 in 209.00 W/m2
16:50 77.9 °F 65.6 °F 30.06 in East 6.9 mph 3.9 mph 66% 0.00 in 209.00 W/m2
16:50 77.9 °F 65.6 °F 30.06 in East 6.9 mph 3.9 mph 66% 0.00 in 209.00 W/m2
16:50 77.9 °F 65.6 °F 30.06 in East 6.9 mph 3.9 mph 66% 0.00 in 209.00 W/m2
16:50 77.9 °F 65.6 °F 30.06 in East 6.9 mph 3.9 mph 66% 0.00 in 209.00 W/m2
16:50 77.9 °F 65.6 °F 30.06 in ENE 6.9 mph 3.9 mph 66% 0.00 in 209.00 W/m2
16:50 77.9 °F 65.6 °F 30.06 in ENE 6.9 mph 3.9 mph 66% 0.00 in 209.00 W/m2
16:50 77.9 °F 66.1 °F 30.06 in East 6.9 mph 3.6 mph 67% 0.00 in 209.00 W/m2
16:50 77.9 °F 66.1 °F 30.06 in East 6.9 mph 3.6 mph 67% 0.00 in 209.00 W/m2
16:50 77.9 °F 66.1 °F 30.06 in East 6.9 mph 3.7 mph 67% 0.00 in 209.00 W/m2
16:50 77.9 °F 66.1 °F 30.06 in East 6.9 mph 3.9 mph 67% 0.00 in 209.00 W/m2
16:50 77.9 °F 66.1 °F 30.06 in East 6.9 mph 4.2 mph 67% 0.00 in 209.00 W/m2
16:51 77.9 °F 66.1 °F 30.06 in East 5.8 mph 4.5 mph 67% 0.00 in 209.00 W/m2
16:51 77.9 °F 66.1 °F 30.06 in East 5.8 mph 4.9 mph 67% 0.00 in 209.00 W/m2
16:51 77.9 °F 66.1 °F 30.06 in East 5.8 mph 4.8 mph 67% 0.00 in 209.00 W/m2
16:51 77.9 °F 66.1 °F 30.06 in East 5.8 mph 4.6 mph 67% 0.00 in 209.00 W/m2
16:51 77.9 °F 66.1 °F 30.06 in East 5.8 mph 4.3 mph 67% 0.00 in 209.00 W/m2
16:51 77.9 °F 66.1 °F 30.06 in East 5.8 mph 4.0 mph 67% 0.00 in 209.00 W/m2
16:51 77.9 °F 66.1 °F 30.06 in East 5.8 mph 3.7 mph 67% 0.00 in 209.00 W/m2
16:51 77.9 °F 66.1 °F 30.06 in East 5.8 mph 3.6 mph 67% 0.00 in 209.00 W/m2
16:51 77.9 °F 66.1 °F 30.06 in East 5.8 mph 3.3 mph 67% 0.00 in 213.00 W/m2
16:51 77.9 °F 66.1 °F 30.06 in East 5.8 mph 3.0 mph 67% 0.00 in 213.00 W/m2
16:51 77.9 °F 66.1 °F 30.06 in East 5.8 mph 2.7 mph 67% 0.00 in 213.00 W/m2
16:52 77.9 °F 66.1 °F 30.06 in East 6.0 mph 2.2 mph 67% 0.00 in 213.00 W/m2
16:52 77.9 °F 66.1 °F 30.06 in ESE 5.8 mph 2.2 mph 67% 0.00 in 213.00 W/m2
16:52 77.9 °F 66.1 °F 30.06 in ESE 5.8 mph 2.2 mph 67% 0.00 in 213.00 W/m2
16:52 77.9 °F 66.1 °F 30.06 in East 5.8 mph 2.0 mph 67% 0.00 in 213.00 W/m2
16:52 77.9 °F 66.1 °F 30.06 in East 5.8 mph 1.7 mph 67% 0.00 in 213.00 W/m2
16:52 77.9 °F 66.1 °F 30.06 in East 5.8 mph 1.5 mph 67% 0.00 in 213.00 W/m2
16:52 77.9 °F 66.1 °F 30.06 in ESE 5.8 mph 1.4 mph 67% 0.00 in 213.00 W/m2
16:52 77.9 °F 66.1 °F 30.06 in ESE 5.8 mph 1.6 mph 67% 0.00 in 213.00 W/m2
16:52 77.9 °F 66.1 °F 30.06 in East 5.8 mph 1.7 mph 67% 0.00 in 213.00 W/m2
16:52 77.9 °F 66.1 °F 30.06 in East 5.8 mph 1.8 mph 67% 0.00 in 211.00 W/m2
16:52 77.9 °F 66.1 °F 30.06 in East 5.8 mph 1.9 mph 67% 0.00 in 211.00 W/m2
16:52 77.9 °F 66.1 °F 30.06 in East 5.8 mph 1.9 mph 67% 0.00 in 211.00 W/m2
16:52 77.9 °F 66.1 °F 30.06 in East 5.8 mph 1.9 mph 67% 0.00 in 211.00 W/m2
16:52 77.9 °F 66.1 °F 30.06 in East 5.8 mph 1.9 mph 67% 0.00 in 211.00 W/m2
16:53 77.9 °F 66.1 °F 30.06 in East 5.8 mph 1.9 mph 67% 0.00 in 211.00 W/m2
16:53 77.9 °F 66.1 °F 30.06 in East 5.8 mph 1.5 mph 67% 0.00 in 211.00 W/m2
16:53 77.9 °F 66.5 °F 30.06 in East 5.8 mph 1.4 mph 68% 0.00 in 211.00 W/m2
16:53 77.9 °F 66.5 °F 30.06 in East 5.8 mph 1.4 mph 68% 0.00 in 211.00 W/m2
16:53 77.9 °F 66.5 °F 30.06 in East 5.8 mph 1.6 mph 68% 0.00 in 211.00 W/m2
16:53 77.9 °F 66.5 °F 30.06 in East 5.8 mph 1.7 mph 68% 0.00 in 211.00 W/m2
16:53 77.9 °F 66.5 °F 30.06 in East 5.8 mph 1.7 mph 68% 0.00 in 211.00 W/m2
16:53 77.9 °F 66.5 °F 30.06 in East 5.8 mph 1.6 mph 68% 0.00 in 213.00 W/m2
16:53 77.9 °F 66.5 °F 30.06 in East 5.8 mph 1.5 mph 68% 0.00 in 213.00 W/m2
16:53 77.9 °F 66.5 °F 30.06 in East 5.8 mph 1.4 mph 68% 0.00 in 213.00 W/m2
16:53 77.9 °F 66.5 °F 30.06 in East 5.8 mph 1.3 mph 68% 0.00 in 213.00 W/m2
16:53 77.9 °F 66.5 °F 30.06 in East 5.8 mph 1.2 mph 68% 0.00 in 213.00 W/m2
16:53 77.9 °F 66.5 °F 30.06 in East 5.8 mph 1.2 mph 68% 0.00 in 213.00 W/m2
16:53 77.9 °F 66.5 °F 30.06 in East 5.8 mph 1.2 mph 68% 0.00 in 213.00 W/m2
16:54 77.9 °F 66.5 °F 30.06 in East 5.8 mph 1.2 mph 68% 0.00 in 213.00 W/m2
16:54 77.9 °F 66.5 °F 30.06 in East 4.6 mph 1.2 mph 68% 0.00 in 213.00 W/m2
16:54 77.9 °F 66.5 °F 30.06 in East 4.6 mph 1.2 mph 68% 0.00 in 213.00 W/m2
16:54 78.0 °F 66.6 °F 30.06 in East 4.6 mph 1.0 mph 68% 0.00 in 213.00 W/m2
16:54 78.0 °F 66.6 °F 30.06 in East 4.6 mph 0.8 mph 68% 0.00 in 213.00 W/m2
16:54 78.0 °F 66.6 °F 30.06 in East 4.6 mph 0.5 mph 68% 0.00 in 216.00 W/m2
16:54 78.0 °F 66.6 °F 30.06 in East 4.6 mph 0.2 mph 68% 0.00 in 216.00 W/m2
16:54 78.0 °F 66.6 °F 30.06 in East 4.6 mph 0.1 mph 68% 0.00 in 216.00 W/m2
16:54 78.0 °F 66.6 °F 30.06 in East 4.6 mph   68% 0.00 in 216.00 W/m2
16:54 78.0 °F 66.6 °F 30.06 in East 4.6 mph   68% 0.00 in 216.00 W/m2
16:54 78.0 °F 66.6 °F 30.06 in East 4.6 mph   68% 0.00 in 216.00 W/m2
16:54 78.0 °F 66.6 °F 30.06 in East 4.6 mph   68% 0.00 in 216.00 W/m2
16:54 78.0 °F 66.6 °F 30.06 in ENE 4.6 mph   68% 0.00 in 216.00 W/m2
16:54 78.0 °F 66.6 °F 30.06 in ENE 4.6 mph   68% 0.00 in 216.00 W/m2
16:55 78.0 °F 66.6 °F 30.06 in ENE 4.6 mph   68% 0.00 in 216.00 W/m2
16:55 78.0 °F 66.6 °F 30.06 in Calm     68% 0.00 in 216.00 W/m2
16:55 78.0 °F 66.6 °F 30.06 in Calm     68% 0.00 in 221.00 W/m2
16:55 78.0 °F 66.6 °F 30.06 in Calm     68% 0.00 in 221.00 W/m2
16:55 78.0 °F 66.6 °F 30.06 in Calm     68% 0.00 in 221.00 W/m2
16:55 78.0 °F 66.6 °F 30.06 in Calm     68% 0.00 in 221.00 W/m2
16:55 78.0 °F 66.6 °F 30.06 in Calm     68% 0.00 in 221.00 W/m2
16:55 78.0 °F 66.6 °F 30.06 in Calm     68% 0.00 in 221.00 W/m2
16:55 78.0 °F 66.6 °F 30.06 in Calm     68% 0.00 in 221.00 W/m2
16:55 78.0 °F 66.6 °F 30.06 in Calm     68% 0.00 in 221.00 W/m2
16:55 78.0 °F 66.6 °F 30.06 in Calm     68% 0.00 in 221.00 W/m2
16:55 78.0 °F 66.6 °F 30.06 in Calm     68% 0.00 in 221.00 W/m2
16:56 78.0 °F 66.6 °F 30.06 in Calm     68% 0.00 in 234.00 W/m2
16:56 78.0 °F 66.6 °F 30.06 in Calm     68% 0.00 in 234.00 W/m2
16:56 78.0 °F 66.6 °F 30.06 in Calm     68% 0.00 in 234.00 W/m2
16:56 78.0 °F 66.6 °F 30.06 in Calm     68% 0.00 in 234.00 W/m2
16:56 78.0 °F 66.6 °F 30.06 in Calm     68% 0.00 in 234.00 W/m2
16:56 78.0 °F 66.6 °F 30.06 in Calm     68% 0.00 in 234.00 W/m2
16:56 78.0 °F 66.6 °F 30.06 in ENE 2.0 mph 0.2 mph 68% 0.00 in 234.00 W/m2
16:56 78.0 °F 66.6 °F 30.06 in ENE 1.0 mph 0.2 mph 68% 0.00 in 234.00 W/m2
16:56 78.0 °F 66.6 °F 30.06 in Calm   0.2 mph 68% 0.00 in 234.00 W/m2
16:56 78.0 °F 66.6 °F 30.06 in East 5.0 mph 0.3 mph 68% 0.00 in 260.00 W/m2
16:57 78.0 °F 66.6 °F 30.06 in East 6.0 mph 0.7 mph 68% 0.00 in 260.00 W/m2
16:57 78.0 °F 66.6 °F 30.06 in East 5.8 mph 1.1 mph 68% 0.00 in 260.00 W/m2
16:57 78.0 °F 66.6 °F 30.06 in East 5.8 mph 1.5 mph 68% 0.00 in 260.00 W/m2
16:57 78.0 °F 66.6 °F 30.06 in East 5.8 mph 1.8 mph 68% 0.00 in 260.00 W/m2
16:57 78.0 °F 66.6 °F 30.06 in East 6.0 mph 2.2 mph 68% 0.00 in 260.00 W/m2
16:57 78.0 °F 66.6 °F 30.06 in East 7.0 mph 2.6 mph 68% 0.00 in 260.00 W/m2
16:57 78.0 °F 66.6 °F 30.06 in East 6.0 mph 3.0 mph 68% 0.00 in 260.00 W/m2
16:57 78.0 °F 66.2 °F 30.06 in East 6.0 mph 3.4 mph 67% 0.00 in 260.00 W/m2
16:57 78.0 °F 66.2 °F 30.06 in East 6.0 mph 3.8 mph 67% 0.00 in 260.00 W/m2
16:57 78.0 °F 66.2 °F 30.06 in East 5.8 mph 4.1 mph 67% 0.00 in 260.00 W/m2
16:57 78.0 °F 66.2 °F 30.06 in East 5.8 mph 4.3 mph 67% 0.00 in 260.00 W/m2
16:57 78.0 °F 66.2 °F 30.06 in East 5.8 mph 4.4 mph 67% 0.00 in 260.00 W/m2
16:57 78.0 °F 66.2 °F 30.06 in East 5.8 mph 4.5 mph 67% 0.00 in 329.00 W/m2
16:57 78.0 °F 66.2 °F 30.06 in East 5.8 mph 4.7 mph 67% 0.00 in 329.00 W/m2
16:57 78.0 °F 66.2 °F 30.06 in East 5.8 mph 4.8 mph 67% 0.00 in 329.00 W/m2
16:58 78.0 °F 66.2 °F 30.06 in East 6.9 mph 4.7 mph 67% 0.00 in 329.00 W/m2
16:58 78.0 °F 66.2 °F 30.06 in East 6.9 mph 4.4 mph 67% 0.00 in 329.00 W/m2
16:58 78.0 °F 66.2 °F 30.06 in East 6.9 mph 4.1 mph 67% 0.00 in 329.00 W/m2
16:58 78.0 °F 65.7 °F 30.06 in East 6.9 mph 3.6 mph 66% 0.00 in 329.00 W/m2
16:58 78.0 °F 65.7 °F 30.06 in East 6.9 mph 3.4 mph 66% 0.00 in 329.00 W/m2
16:58 78.0 °F 65.7 °F 30.06 in East 6.9 mph 3.2 mph 66% 0.00 in 329.00 W/m2
16:58 78.0 °F 65.7 °F 30.06 in East 6.9 mph 3.0 mph 66% 0.00 in 329.00 W/m2
16:58 78.0 °F 65.7 °F 30.06 in ESE 6.9 mph 2.9 mph 66% 0.00 in 329.00 W/m2
16:58 78.0 °F 65.7 °F 30.06 in ESE 6.9 mph 2.8 mph 66% 0.00 in 348.00 W/m2
16:58 78.0 °F 65.7 °F 30.06 in East 6.9 mph 2.8 mph 66% 0.00 in 348.00 W/m2
16:58 78.0 °F 65.7 °F 30.06 in East 6.9 mph 2.7 mph 66% 0.00 in 348.00 W/m2
16:58 78.0 °F 65.7 °F 30.06 in ENE 6.9 mph 2.6 mph 66% 0.00 in 348.00 W/m2
16:59 78.0 °F 65.7 °F 30.06 in East 6.9 mph 2.6 mph 66% 0.00 in 348.00 W/m2
16:59 78.0 °F 65.7 °F 30.06 in East 4.6 mph 2.5 mph 66% 0.00 in 348.00 W/m2
16:59 78.0 °F 66.2 °F 30.06 in East 4.6 mph 2.6 mph 67% 0.00 in 348.00 W/m2
16:59 78.0 °F 66.2 °F 30.06 in East 4.6 mph 2.6 mph 67% 0.00 in 348.00 W/m2
16:59 78.0 °F 66.2 °F 30.06 in East 4.6 mph 2.7 mph 67% 0.00 in 348.00 W/m2
16:59 78.1 °F 66.2 °F 30.06 in East 4.6 mph 2.6 mph 67% 0.00 in 348.00 W/m2
16:59 78.1 °F 66.2 °F 30.06 in East 5.0 mph 2.7 mph 67% 0.00 in 341.00 W/m2
16:59 78.1 °F 66.2 °F 30.06 in East 4.6 mph 2.7 mph 67% 0.00 in 341.00 W/m2
16:59 78.1 °F 66.2 °F 30.06 in East 4.6 mph 2.6 mph 67% 0.00 in 341.00 W/m2
16:59 78.1 °F 66.2 °F 30.06 in East 4.6 mph 2.6 mph 67% 0.00 in 341.00 W/m2
16:59 78.1 °F 66.2 °F 30.06 in East 4.6 mph 2.6 mph 67% 0.00 in 341.00 W/m2
16:59 78.1 °F 66.2 °F 30.06 in East 4.6 mph 2.7 mph 67% 0.00 in 341.00 W/m2
16:59 78.1 °F 66.2 °F 30.05 in East 4.6 mph 2.7 mph 67% 0.00 in 341.00 W/m2
17:00 78.1 °F 66.2 °F 30.05 in East 4.6 mph 2.7 mph 67% 0.00 in 341.00 W/m2
17:00 78.1 °F 66.2 °F 30.05 in East 4.6 mph 2.7 mph 67% 0.00 in 341.00 W/m2
17:00 78.1 °F 66.2 °F 30.05 in East 5.0 mph 2.8 mph 67% 0.00 in 341.00 W/m2
17:00 78.1 °F 66.2 °F 30.05 in East 4.6 mph 2.9 mph 67% 0.00 in 341.00 W/m2
17:00 78.1 °F 66.2 °F 30.05 in East 4.6 mph 3.0 mph 67% 0.00 in 271.00 W/m2
17:00 78.1 °F 66.2 °F 30.05 in East 5.0 mph 3.1 mph 67% 0.00 in 271.00 W/m2
17:00 78.1 °F 66.2 °F 30.05 in East 5.0 mph 3.3 mph 67% 0.00 in 271.00 W/m2
17:00 78.2 °F 66.3 °F 30.05 in East 4.6 mph 3.3 mph 67% 0.00 in 271.00 W/m2
17:00 78.2 °F 66.3 °F 30.05 in East 6.0 mph 3.2 mph 67% 0.00 in 271.00 W/m2
17:00 78.2 °F 66.3 °F 30.05 in East 5.0 mph 3.3 mph 67% 0.00 in 271.00 W/m2
17:00 78.2 °F 66.3 °F 30.06 in ENE 4.6 mph 3.2 mph 67% 0.00 in 271.00 W/m2
17:00 78.2 °F 66.3 °F 30.06 in ENE 4.6 mph 3.2 mph 67% 0.00 in 271.00 W/m2
17:00 78.2 °F 66.3 °F 30.06 in ENE 5.0 mph 3.3 mph 67% 0.00 in 271.00 W/m2
17:01 78.2 °F 66.3 °F 30.05 in ENE 5.8 mph 3.4 mph 67% 0.00 in 271.00 W/m2
17:01 78.2 °F 66.3 °F 30.05 in East 5.8 mph 3.6 mph 67% 0.00 in 271.00 W/m2
17:01 78.2 °F 66.3 °F 30.05 in East 5.8 mph 3.6 mph 67% 0.00 in 271.00 W/m2
17:01 78.2 °F 66.3 °F 30.05 in East 5.8 mph 3.6 mph 67% 0.00 in 272.00 W/m2
17:01 78.2 °F 66.3 °F 30.05 in East 5.8 mph 3.5 mph 67% 0.00 in 272.00 W/m2
17:01 78.2 °F 66.3 °F 30.05 in East 5.8 mph 3.4 mph 67% 0.00 in 272.00 W/m2
17:01 78.2 °F 66.3 °F 30.05 in East 5.8 mph 3.4 mph 67% 0.00 in 272.00 W/m2
17:01 78.2 °F 66.3 °F 30.05 in East 5.8 mph 3.6 mph 67% 0.00 in 272.00 W/m2
17:01 78.2 °F 66.8 °F 30.05 in East 6.0 mph 3.7 mph 68% 0.00 in 272.00 W/m2
17:01 78.2 °F 66.8 °F 30.05 in East 5.8 mph 3.7 mph 68% 0.00 in 272.00 W/m2
17:01 78.2 °F 66.8 °F 30.05 in East 5.8 mph 3.7 mph 68% 0.00 in 272.00 W/m2
17:01 78.2 °F 66.8 °F 30.05 in ENE 5.8 mph 3.9 mph 68% 0.00 in 272.00 W/m2
17:01 78.2 °F 66.8 °F 30.06 in ENE 5.8 mph 3.8 mph 68% 0.00 in 272.00 W/m2
17:02 78.2 °F 66.8 °F 30.06 in ENE 5.8 mph 3.7 mph 68% 0.00 in 272.00 W/m2
17:02 78.3 °F 66.9 °F 30.06 in ENE 5.8 mph 3.6 mph 68% 0.00 in 306.00 W/m2
17:02 78.3 °F 66.9 °F 30.06 in ENE 5.8 mph 3.6 mph 68% 0.00 in 306.00 W/m2
17:02 78.3 °F 66.9 °F 30.06 in ENE 5.8 mph 3.6 mph 68% 0.00 in 306.00 W/m2
17:02 78.3 °F 66.9 °F 30.06 in ENE 5.8 mph 3.5 mph 68% 0.00 in 306.00 W/m2
17:02 78.3 °F 66.9 °F 30.06 in ENE 5.8 mph 3.4 mph 68% 0.00 in 306.00 W/m2
17:02 78.3 °F 66.9 °F 30.06 in ENE 5.8 mph 3.2 mph 68% 0.00 in 306.00 W/m2
17:02 78.3 °F 66.9 °F 30.06 in East 5.8 mph 3.1 mph 68% 0.00 in 306.00 W/m2
17:02 78.3 °F 66.9 °F 30.06 in East 5.8 mph 2.4 mph 68% 0.00 in 306.00 W/m2
17:02 78.3 °F 66.9 °F 30.06 in East 5.8 mph 2.2 mph 68% 0.00 in 306.00 W/m2
17:02 78.3 °F 66.9 °F 30.05 in East 5.8 mph 2.0 mph 68% 0.00 in 306.00 W/m2
17:02 78.3 °F 66.9 °F 30.05 in East 5.8 mph 2.1 mph 68% 0.00 in 306.00 W/m2
17:02 78.3 °F 66.9 °F 30.05 in East 5.8 mph 1.8 mph 68% 0.00 in 338.00 W/m2
17:03 78.3 °F 66.9 °F 30.05 in East 5.8 mph 1.8 mph 68% 0.00 in 338.00 W/m2
17:03 78.3 °F 66.9 °F 30.05 in East 4.6 mph 1.7 mph 68% 0.00 in 338.00 W/m2
17:03 78.3 °F 66.9 °F 30.05 in ENE 4.6 mph 1.6 mph 68% 0.00 in 338.00 W/m2
17:03 78.3 °F 66.9 °F 30.05 in ENE 4.6 mph 1.6 mph 68% 0.00 in 338.00 W/m2
17:03 78.3 °F 66.9 °F 30.05 in ENE 4.6 mph 1.6 mph 68% 0.00 in 338.00 W/m2
17:03 78.3 °F 66.9 °F 30.05 in ENE 4.6 mph 1.8 mph 68% 0.00 in 338.00 W/m2
17:03 78.4 °F 67.0 °F 30.05 in ENE 5.0 mph 2.1 mph 68% 0.00 in 338.00 W/m2
17:03 78.4 °F 67.0 °F 30.05 in ENE 4.6 mph 2.3 mph 68% 0.00 in 338.00 W/m2
17:03 78.4 °F 67.0 °F 30.05 in ENE 5.0 mph 2.6 mph 68% 0.00 in 338.00 W/m2
17:03 78.4 °F 67.0 °F 30.05 in ENE 4.6 mph 3.0 mph 68% 0.00 in 338.00 W/m2
17:03 78.4 °F 67.0 °F 30.05 in ENE 4.6 mph 3.0 mph 68% 0.00 in 353.00 W/m2
17:03 78.4 °F 67.0 °F 30.05 in ENE 4.6 mph 2.9 mph 68% 0.00 in 353.00 W/m2
17:03 78.4 °F 67.0 °F 30.05 in NE 4.6 mph 3.0 mph 68% 0.00 in 353.00 W/m2
17:04 78.4 °F 67.0 °F 30.05 in ENE 4.6 mph 3.2 mph 68% 0.00 in 353.00 W/m2
17:04 78.4 °F 67.0 °F 30.05 in ENE 4.6 mph 3.2 mph 68% 0.00 in 353.00 W/m2
17:04 78.4 °F 67.0 °F 30.05 in ENE 4.6 mph 3.3 mph 68% 0.00 in 353.00 W/m2
17:04 78.4 °F 67.0 °F 30.05 in ENE 4.6 mph 3.3 mph 68% 0.00 in 353.00 W/m2
17:04 78.4 °F 67.0 °F 30.05 in ENE 4.6 mph 3.2 mph 68% 0.00 in 353.00 W/m2
17:04 78.4 °F 67.0 °F 30.05 in ENE 4.6 mph 3.1 mph 68% 0.00 in 353.00 W/m2
17:04 78.4 °F 67.0 °F 30.05 in ENE 4.6 mph 2.8 mph 68% 0.00 in 353.00 W/m2
17:04 78.4 °F 67.0 °F 30.05 in ENE 4.6 mph 2.5 mph 68% 0.00 in 353.00 W/m2
17:04 78.4 °F 67.0 °F 30.05 in ENE 4.6 mph 2.3 mph 68% 0.00 in 353.00 W/m2
17:04 78.4 °F 67.0 °F 30.05 in ENE 4.6 mph 2.1 mph 68% 0.00 in 355.00 W/m2
17:04 78.5 °F 67.1 °F 30.05 in ENE 4.6 mph 1.8 mph 68% 0.00 in 355.00 W/m2
17:04 78.5 °F 67.1 °F 30.05 in East 4.6 mph 1.5 mph 68% 0.00 in 355.00 W/m2
17:04 78.5 °F 67.1 °F 30.05 in ESE 4.6 mph 1.4 mph 68% 0.00 in 355.00 W/m2
17:04 78.5 °F 67.1 °F 30.05 in ESE 4.6 mph 1.3 mph 68% 0.00 in 355.00 W/m2
17:04 78.5 °F 67.1 °F 30.05 in East 4.6 mph 1.3 mph 68% 0.00 in 355.00 W/m2
17:05 78.5 °F 67.5 °F 30.05 in East 4.6 mph 1.2 mph 69% 0.00 in 355.00 W/m2
17:05 78.5 °F 67.5 °F 30.05 in East 3.5 mph 1.0 mph 69% 0.00 in 355.00 W/m2
17:05 78.5 °F 67.5 °F 30.05 in East 3.5 mph 0.8 mph 69% 0.00 in 355.00 W/m2
17:05 78.5 °F 67.5 °F 30.05 in East 3.5 mph 0.6 mph 69% 0.00 in 355.00 W/m2
17:05 78.5 °F 67.5 °F 30.05 in ENE 3.5 mph 0.5 mph 69% 0.00 in 355.00 W/m2
17:05 78.5 °F 67.5 °F 30.05 in ENE 3.5 mph 0.5 mph 69% 0.00 in 371.00 W/m2
17:05 78.5 °F 67.5 °F 30.05 in ENE 3.5 mph 0.5 mph 69% 0.00 in 371.00 W/m2
17:05 78.5 °F 67.5 °F 30.05 in ENE 3.5 mph 0.5 mph 69% 0.00 in 371.00 W/m2
17:05 78.6 °F 67.6 °F 30.05 in ENE 3.5 mph 0.6 mph 69% 0.00 in 371.00 W/m2
17:05 78.6 °F 67.6 °F 30.05 in ENE 3.5 mph 0.9 mph 69% 0.00 in 371.00 W/m2
17:05 78.6 °F 67.6 °F 30.05 in ENE 3.5 mph 1.0 mph 69% 0.00 in 371.00 W/m2
17:06 78.6 °F 67.6 °F 30.05 in ENE 3.5 mph 0.9 mph 69% 0.00 in 371.00 W/m2
17:06 78.6 °F 67.6 °F 30.05 in ENE 3.5 mph 0.8 mph 69% 0.00 in 371.00 W/m2
17:06 78.6 °F 67.6 °F 30.05 in ENE 3.5 mph 0.6 mph 69% 0.00 in 371.00 W/m2
17:06 78.6 °F 67.6 °F 30.05 in ENE 3.5 mph 0.6 mph 69% 0.00 in 371.00 W/m2
17:06 78.6 °F 67.6 °F 30.05 in ENE 3.5 mph 0.6 mph 69% 0.00 in 371.00 W/m2
17:06 78.7 °F 67.7 °F 30.05 in NE 3.5 mph 0.8 mph 69% 0.00 in 366.00 W/m2
17:06 78.7 °F 67.7 °F 30.05 in NE 3.5 mph 0.9 mph 69% 0.00 in 366.00 W/m2
17:06 78.7 °F 67.7 °F 30.05 in NE 3.5 mph 1.1 mph 69% 0.00 in 366.00 W/m2
17:06 78.7 °F 67.7 °F 30.05 in NE 3.5 mph 1.5 mph 69% 0.00 in 366.00 W/m2
17:06 78.7 °F 67.7 °F 30.05 in ENE 3.5 mph 1.6 mph 69% 0.00 in 366.00 W/m2
17:06 78.7 °F 67.7 °F 30.05 in ENE 3.5 mph 1.5 mph 69% 0.00 in 366.00 W/m2
17:06 78.7 °F 67.2 °F 30.05 in ENE 5.0 mph 1.6 mph 68% 0.00 in 366.00 W/m2
17:06 78.7 °F 67.2 °F 30.05 in ENE 5.0 mph 1.8 mph 68% 0.00 in 366.00 W/m2
17:06 78.7 °F 67.2 °F 30.05 in ENE 5.0 mph 2.1 mph 68% 0.00 in 366.00 W/m2
17:07 78.7 °F 67.2 °F 30.05 in ENE 5.0 mph 2.3 mph 68% 0.00 in 366.00 W/m2
17:07 78.7 °F 67.2 °F 30.05 in ENE 4.6 mph 2.9 mph 68% 0.00 in 381.00 W/m2
17:07 78.7 °F 67.2 °F 30.05 in ENE 4.6 mph 3.0 mph 68% 0.00 in 381.00 W/m2
17:07 78.7 °F 67.2 °F 30.05 in ENE 4.6 mph 2.9 mph 68% 0.00 in 381.00 W/m2
17:07 78.7 °F 67.2 °F 30.05 in ENE 4.6 mph 2.8 mph 68% 0.00 in 381.00 W/m2
17:07 78.7 °F 67.2 °F 30.05 in NE 4.6 mph 2.7 mph 68% 0.00 in 381.00 W/m2
17:07 78.7 °F 67.2 °F 30.05 in NE 4.6 mph 2.6 mph 68% 0.00 in 381.00 W/m2
17:07 78.7 °F 67.2 °F 30.05 in NE 4.6 mph 2.3 mph 68% 0.00 in 381.00 W/m2
17:07 78.8 °F 66.9 °F 30.05 in ENE 4.6 mph 2.2 mph 67% 0.00 in 381.00 W/m2
17:07 78.8 °F 66.9 °F 30.05 in ENE 4.6 mph 2.0 mph 67% 0.00 in 381.00 W/m2
17:07 78.8 °F 66.9 °F 30.05 in ENE 4.6 mph 1.5 mph 67% 0.00 in 381.00 W/m2
17:08 78.8 °F 66.9 °F 30.05 in ENE 4.6 mph 1.1 mph 67% 0.00 in 413.00 W/m2
17:08 78.8 °F 66.9 °F 30.05 in ENE 4.6 mph 1.1 mph 67% 0.00 in 413.00 W/m2
17:08 78.8 °F 66.9 °F 30.05 in ENE 4.6 mph 0.6 mph 67% 0.00 in 413.00 W/m2
17:08 78.8 °F 66.9 °F 30.05 in ENE 4.6 mph 0.4 mph 67% 0.00 in 413.00 W/m2
17:08 78.8 °F 66.9 °F 30.05 in ENE 4.6 mph 0.2 mph 67% 0.00 in 413.00 W/m2
17:08 78.8 °F 66.9 °F 30.05 in NE 4.6 mph 0.1 mph 67% 0.00 in 413.00 W/m2
17:08 78.8 °F 66.9 °F 30.05 in NE 4.6 mph   67% 0.00 in 413.00 W/m2
17:08 78.8 °F 67.3 °F 30.05 in ENE 4.6 mph   68% 0.00 in 413.00 W/m2
17:08 78.9 °F 67.4 °F 30.05 in NE 4.6 mph   68% 0.00 in 413.00 W/m2
17:08 78.9 °F 67.4 °F 30.05 in NE 4.6 mph 0.2 mph 68% 0.00 in 413.00 W/m2
17:08 78.9 °F 67.4 °F 30.05 in NE 4.6 mph 0.3 mph 68% 0.00 in 413.00 W/m2
17:08 78.9 °F 67.4 °F 30.05 in NE 4.6 mph 0.6 mph 68% 0.00 in 413.00 W/m2
17:08 78.9 °F 67.4 °F 30.05 in NE 4.6 mph 0.8 mph 68% 0.00 in 366.00 W/m2
17:08 78.9 °F 67.4 °F 30.05 in NE 4.6 mph 1.1 mph 68% 0.00 in 366.00 W/m2
17:09 78.9 °F 67.4 °F 30.05 in ENE 5.0 mph 1.3 mph 68% 0.00 in 366.00 W/m2
17:09 78.9 °F 67.4 °F 30.05 in NE 5.0 mph 1.9 mph 68% 0.00 in 366.00 W/m2
17:09 78.9 °F 67.4 °F 30.05 in NE 4.0 mph 2.4 mph 68% 0.00 in 366.00 W/m2
17:09 78.9 °F 67.0 °F 30.05 in ENE 5.0 mph 2.7 mph 67% 0.00 in 366.00 W/m2
17:09 78.9 °F 67.0 °F 30.05 in ENE 4.0 mph 3.0 mph 67% 0.00 in 366.00 W/m2
17:09 78.9 °F 67.0 °F 30.05 in ENE 4.0 mph 3.3 mph 67% 0.00 in 366.00 W/m2
17:09 78.9 °F 67.0 °F 30.05 in ENE 3.5 mph 3.5 mph 67% 0.00 in 366.00 W/m2
17:09 78.9 °F 67.0 °F 30.05 in ENE 3.5 mph 3.6 mph 67% 0.00 in 366.00 W/m2
17:09 78.9 °F 67.0 °F 30.05 in ENE 3.5 mph 3.6 mph 67% 0.00 in 366.00 W/m2
17:09 79.0 °F 67.1 °F 30.05 in ENE 3.5 mph 3.5 mph 67% 0.00 in 359.00 W/m2
17:09 79.0 °F 67.1 °F 30.05 in ENE 3.5 mph 3.3 mph 67% 0.00 in 359.00 W/m2
17:09 79.0 °F 67.1 °F 30.05 in ENE 3.5 mph 3.0 mph 67% 0.00 in 359.00 W/m2
17:10 79.0 °F 67.1 °F 30.05 in ENE 4.6 mph 2.8 mph 67% 0.00 in 359.00 W/m2
17:10 79.0 °F 67.1 °F 30.05 in ENE 4.6 mph 2.6 mph 67% 0.00 in 359.00 W/m2
17:10 79.0 °F 67.1 °F 30.05 in ENE 4.6 mph 2.0 mph 67% 0.00 in 359.00 W/m2
17:10 79.0 °F 67.1 °F 30.05 in NE 4.6 mph 1.9 mph 67% 0.00 in 359.00 W/m2
17:10 79.0 °F 67.1 °F 30.05 in North 4.6 mph 1.9 mph 67% 0.00 in 359.00 W/m2
17:10 79.0 °F 67.1 °F 30.05 in North 4.6 mph 1.8 mph 67% 0.00 in 359.00 W/m2
17:10 79.0 °F 67.1 °F 30.05 in NE 4.6 mph 1.7 mph 67% 0.00 in 359.00 W/m2
17:10 79.0 °F 67.1 °F 30.05 in NE 4.6 mph 1.7 mph 67% 0.00 in 359.00 W/m2
17:10 79.1 °F 67.2 °F 30.05 in NE 4.6 mph 1.6 mph 67% 0.00 in 413.00 W/m2
17:10 79.1 °F 67.2 °F 30.05 in NE 4.6 mph 1.6 mph 67% 0.00 in 413.00 W/m2
17:10 79.1 °F 67.2 °F 30.05 in ENE 4.6 mph 1.6 mph 67% 0.00 in 413.00 W/m2
17:10 79.1 °F 67.2 °F 30.05 in ENE 4.6 mph 1.9 mph 67% 0.00 in 413.00 W/m2
17:11 79.1 °F 66.8 °F 30.05 in NE 5.0 mph 2.2 mph 66% 0.00 in 413.00 W/m2
17:11 79.1 °F 66.8 °F 30.05 in NNE 3.5 mph 2.4 mph 66% 0.00 in 413.00 W/m2
17:11 79.1 °F 66.8 °F 30.05 in NE 3.5 mph 2.6 mph 66% 0.00 in 413.00 W/m2
17:11 79.1 °F 66.8 °F 30.05 in NE 3.5 mph 2.6 mph 66% 0.00 in 413.00 W/m2
17:11 79.1 °F 66.8 °F 30.05 in NE 3.5 mph 2.7 mph 66% 0.00 in 413.00 W/m2
17:11 79.1 °F 66.8 °F 30.05 in NE 4.0 mph 2.7 mph 66% 0.00 in 394.00 W/m2
17:11 79.1 °F 66.8 °F 30.05 in ENE 4.0 mph 2.8 mph 66% 0.00 in 394.00 W/m2
17:11 79.1 °F 66.8 °F 30.05 in ENE 4.0 mph 2.9 mph 66% 0.00 in 394.00 W/m2
17:11 79.1 °F 66.8 °F 30.05 in NE 4.0 mph 2.9 mph 66% 0.00 in 394.00 W/m2
17:11 79.1 °F 66.8 °F 30.05 in ENE 3.5 mph 2.8 mph 66% 0.00 in 394.00 W/m2
17:11 79.1 °F 66.8 °F 30.05 in ENE 3.5 mph 2.8 mph 66% 0.00 in 394.00 W/m2
17:11 79.1 °F 66.8 °F 30.05 in ENE 3.5 mph 2.8 mph 66% 0.00 in 394.00 W/m2
17:12 79.2 °F 66.9 °F 30.05 in ENE 3.5 mph 2.7 mph 66% 0.00 in 394.00 W/m2
17:12 79.2 °F 66.9 °F 30.05 in North 3.5 mph 2.7 mph 66% 0.00 in 394.00 W/m2
17:12 79.2 °F 66.9 °F 30.05 in ENE 4.0 mph 2.8 mph 66% 0.00 in 394.00 W/m2
17:12 79.2 °F 66.9 °F 30.05 in East 3.5 mph 2.8 mph 66% 0.00 in 394.00 W/m2
17:12 79.2 °F 66.9 °F 30.05 in East 5.0 mph 2.9 mph 66% 0.00 in 432.00 W/m2
17:12 79.2 °F 66.9 °F 30.05 in East 5.0 mph 3.1 mph 66% 0.00 in 432.00 W/m2
17:12 79.2 °F 66.9 °F 30.05 in East 3.5 mph 3.2 mph 66% 0.00 in 432.00 W/m2
17:12 79.2 °F 66.9 °F 30.05 in East 5.0 mph 3.2 mph 66% 0.00 in 432.00 W/m2
17:12 79.2 °F 66.9 °F 30.05 in ENE 6.0 mph 3.4 mph 66% 0.00 in 432.00 W/m2
17:12 79.2 °F 66.9 °F 30.05 in ENE 5.0 mph 3.4 mph 66% 0.00 in 432.00 W/m2
17:12 79.2 °F 66.9 °F 30.05 in ENE 5.0 mph 3.6 mph 66% 0.00 in 432.00 W/m2
17:12 79.2 °F 66.4 °F 30.05 in ENE 5.0 mph 3.8 mph 65% 0.00 in 432.00 W/m2
17:12 79.2 °F 66.4 °F 30.05 in ENE 8.0 mph 4.0 mph 65% 0.00 in 432.00 W/m2
17:12 79.2 °F 66.4 °F 30.05 in ENE 8.0 mph 4.4 mph 65% 0.00 in 432.00 W/m2
17:13 79.2 °F 66.4 °F 30.05 in East 8.1 mph 4.7 mph 65% 0.00 in 432.00 W/m2
17:13 79.2 °F 66.4 °F 30.05 in ENE 8.1 mph 4.9 mph 65% 0.00 in 432.00 W/m2
17:13 79.2 °F 66.4 °F 30.05 in ENE 8.1 mph 5.3 mph 65% 0.00 in 415.00 W/m2
17:13 79.2 °F 66.4 °F 30.05 in ENE 8.1 mph 5.5 mph 65% 0.00 in 415.00 W/m2
17:13 79.3 °F 66.5 °F 30.05 in ENE 8.1 mph 5.5 mph 65% 0.00 in 415.00 W/m2
17:13 79.3 °F 66.5 °F 30.05 in NE 8.1 mph 5.6 mph 65% 0.00 in 415.00 W/m2
17:13 79.3 °F 66.5 °F 30.05 in ENE 8.1 mph 5.6 mph 65% 0.00 in 415.00 W/m2
17:13 79.3 °F 66.5 °F 30.05 in NE 8.1 mph 5.6 mph 65% 0.00 in 415.00 W/m2
17:13 79.3 °F 66.5 °F 30.05 in ENE 8.1 mph 5.7 mph 65% 0.00 in 415.00 W/m2
17:13 79.3 °F 66.5 °F 30.05 in NE 8.1 mph 5.9 mph 65% 0.00 in 415.00 W/m2
17:13 79.3 °F 66.5 °F 30.05 in NE 8.1 mph 5.9 mph 65% 0.00 in 415.00 W/m2
17:13 79.3 °F 66.5 °F 30.05 in ENE 8.1 mph 5.8 mph 65% 0.00 in 415.00 W/m2
17:13 79.3 °F 66.5 °F 30.05 in NE 8.1 mph 5.7 mph 65% 0.00 in 415.00 W/m2
17:14 79.3 °F 66.5 °F 30.05 in ENE 8.1 mph 5.5 mph 65% 0.00 in 432.00 W/m2
17:14 79.3 °F 66.5 °F 30.05 in ENE 6.9 mph 5.2 mph 65% 0.00 in 432.00 W/m2
17:14 79.3 °F 66.5 °F 30.05 in ENE 7.0 mph 5.1 mph 65% 0.00 in 432.00 W/m2
17:14 79.3 °F 66.5 °F 30.05 in ENE 7.0 mph 5.1 mph 65% 0.00 in 432.00 W/m2
17:14 79.3 °F 66.5 °F 30.05 in NNE 6.9 mph 5.0 mph 65% 0.00 in 432.00 W/m2
17:14 79.3 °F 66.5 °F 30.05 in ENE 6.9 mph 4.9 mph 65% 0.00 in 432.00 W/m2
17:14 79.3 °F 66.5 °F 30.05 in ENE 6.9 mph 5.0 mph 65% 0.00 in 432.00 W/m2
17:14 79.3 °F 66.5 °F 30.05 in ENE 6.9 mph 4.9 mph 65% 0.00 in 432.00 W/m2
17:14 79.3 °F 66.5 °F 30.05 in ENE 6.9 mph 4.8 mph 65% 0.00 in 432.00 W/m2
17:14 79.3 °F 66.5 °F 30.05 in ENE 7.0 mph 4.8 mph 65% 0.00 in 432.00 W/m2
17:14 79.3 °F 66.5 °F 30.05 in ENE 7.0 mph 5.0 mph 65% 0.00 in 425.00 W/m2
17:14 79.3 °F 66.5 °F 30.05 in ENE 7.0 mph 5.2 mph 65% 0.00 in 425.00 W/m2
17:15 79.3 °F 66.5 °F 30.05 in ENE 6.9 mph 5.1 mph 65% 0.00 in 425.00 W/m2
17:15 79.3 °F 66.5 °F 30.05 in ENE 6.9 mph 5.0 mph 65% 0.00 in 425.00 W/m2
17:15 79.3 °F 66.5 °F 30.05 in ENE 6.9 mph 4.8 mph 65% 0.00 in 425.00 W/m2
17:15 79.3 °F 66.5 °F 30.05 in NE 6.9 mph 4.2 mph 65% 0.00 in 425.00 W/m2
17:15 79.3 °F 66.5 °F 30.05 in ENE 6.9 mph 3.8 mph 65% 0.00 in 425.00 W/m2
17:15 79.3 °F 66.5 °F 30.05 in ENE 6.9 mph 3.7 mph 65% 0.00 in 425.00 W/m2
17:15 79.3 °F 66.5 °F 30.05 in ENE 6.9 mph 3.7 mph 65% 0.00 in 425.00 W/m2
17:15 79.4 °F 66.6 °F 30.05 in East 8.0 mph 3.6 mph 65% 0.00 in 425.00 W/m2
17:15 79.4 °F 66.6 °F 30.05 in East 7.0 mph 3.8 mph 65% 0.00 in 343.00 W/m2
17:15 79.4 °F 66.6 °F 30.05 in East 8.0 mph 3.9 mph 65% 0.00 in 343.00 W/m2
17:15 79.4 °F 66.6 °F 30.05 in ENE 8.0 mph 4.2 mph 65% 0.00 in 343.00 W/m2
17:15 79.4 °F 66.6 °F 30.05 in ENE 8.0 mph 4.4 mph 65% 0.00 in 343.00 W/m2
17:16 79.4 °F 66.6 °F 30.05 in East 8.1 mph 4.4 mph 65% 0.00 in 343.00 W/m2
17:16 79.4 °F 66.6 °F 30.05 in East 8.1 mph 4.3 mph 65% 0.00 in 343.00 W/m2
17:16 79.4 °F 66.6 °F 30.05 in ENE 8.1 mph 4.3 mph 65% 0.00 in 343.00 W/m2
17:16 79.4 °F 66.2 °F 30.05 in ENE 8.1 mph 4.4 mph 64% 0.00 in 343.00 W/m2
17:16 79.4 °F 66.2 °F 30.05 in ENE 8.1 mph 4.7 mph 64% 0.00 in 343.00 W/m2
17:16 79.4 °F 66.2 °F 30.05 in East 8.1 mph 5.1 mph 64% 0.00 in 343.00 W/m2
17:16 79.4 °F 66.2 °F 30.05 in ENE 8.1 mph 5.4 mph 64% 0.00 in 343.00 W/m2
17:16 79.4 °F 66.2 °F 30.05 in ENE 8.1 mph 6.1 mph 64% 0.00 in 343.00 W/m2
17:16 79.4 °F 66.2 °F 30.05 in ENE 8.1 mph 6.6 mph 64% 0.00 in 301.00 W/m2
17:16 79.4 °F 66.2 °F 30.05 in ENE 8.1 mph 6.6 mph 64% 0.00 in 301.00 W/m2
17:16 79.4 °F 66.2 °F 30.05 in ENE 8.1 mph 6.5 mph 64% 0.00 in 301.00 W/m2
17:17 79.4 °F 66.2 °F 30.05 in ENE 8.1 mph 6.4 mph 64% 0.00 in 301.00 W/m2
17:17 79.4 °F 66.2 °F 30.05 in East 8.1 mph 6.3 mph 64% 0.00 in 301.00 W/m2
17:17 79.4 °F 66.2 °F 30.05 in East 8.1 mph 6.2 mph 64% 0.00 in 301.00 W/m2
17:17 79.4 °F 66.2 °F 30.05 in ENE 8.1 mph 6.2 mph 64% 0.00 in 301.00 W/m2
17:17 79.4 °F 66.2 °F 30.05 in ENE 8.1 mph 6.1 mph 64% 0.00 in 301.00 W/m2
17:17 79.4 °F 66.2 °F 30.05 in East 8.1 mph 6.2 mph 64% 0.00 in 276.00 W/m2
17:17 79.4 °F 66.2 °F 30.05 in East 8.1 mph 6.3 mph 64% 0.00 in 276.00 W/m2
17:17 79.4 °F 66.2 °F 30.05 in ENE 8.1 mph 6.2 mph 64% 0.00 in 276.00 W/m2
17:17 79.4 °F 66.2 °F 30.05 in East 8.1 mph 6.0 mph 64% 0.00 in 276.00 W/m2
17:17 79.3 °F 66.1 °F 30.05 in East 8.1 mph 5.8 mph 64% 0.00 in 276.00 W/m2
17:17 79.3 °F 66.1 °F 30.05 in East 8.1 mph 5.7 mph 64% 0.00 in 276.00 W/m2
17:17 79.3 °F 66.1 °F 30.05 in East 8.1 mph 5.6 mph 64% 0.00 in 276.00 W/m2
17:18 79.3 °F 65.6 °F 30.05 in ESE 8.1 mph 5.6 mph 63% 0.00 in 276.00 W/m2
17:18 79.3 °F 65.6 °F 30.05 in East 8.1 mph 5.5 mph 63% 0.00 in 276.00 W/m2
17:18 79.3 °F 65.6 °F 30.05 in East 8.1 mph 5.6 mph 63% 0.00 in 276.00 W/m2
17:18 79.3 °F 65.6 °F 30.05 in East 8.1 mph 5.6 mph 63% 0.00 in 271.00 W/m2
17:18 79.3 °F 65.6 °F 30.05 in ENE 8.1 mph 5.6 mph 63% 0.00 in 271.00 W/m2
17:18 79.3 °F 65.6 °F 30.05 in East 8.1 mph 4.7 mph 63% 0.00 in 271.00 W/m2
17:18 79.3 °F 65.6 °F 30.05 in East 8.1 mph 4.5 mph 63% 0.00 in 271.00 W/m2
17:18 79.3 °F 65.6 °F 30.05 in East 8.1 mph 4.3 mph 63% 0.00 in 271.00 W/m2
17:18 79.3 °F 65.6 °F 30.05 in East 8.1 mph 4.3 mph 63% 0.00 in 271.00 W/m2
17:18 79.3 °F 66.1 °F 30.05 in East 8.1 mph 4.2 mph 64% 0.00 in 271.00 W/m2
17:18 79.3 °F 66.1 °F 30.05 in ENE 8.1 mph 4.2 mph 64% 0.00 in 271.00 W/m2
17:19 79.3 °F 66.1 °F 30.05 in ENE 8.1 mph 4.2 mph 64% 0.00 in 271.00 W/m2
17:19 79.3 °F 66.1 °F 30.05 in East 5.8 mph 4.2 mph 64% 0.00 in 271.00 W/m2
17:19 79.3 °F 66.1 °F 30.05 in East 6.0 mph 4.1 mph 64% 0.00 in 269.00 W/m2
17:19 79.3 °F 66.1 °F 30.05 in ENE 7.0 mph 4.2 mph 64% 0.00 in 269.00 W/m2
17:19 79.3 °F 66.1 °F 30.05 in East 6.0 mph 4.2 mph 64% 0.00 in 269.00 W/m2
17:19 79.3 °F 66.1 °F 30.05 in East 7.0 mph 4.3 mph 64% 0.00 in 269.00 W/m2
17:19 79.3 °F 66.1 °F 30.05 in ENE 7.0 mph 4.6 mph 64% 0.00 in 269.00 W/m2
17:19 79.3 °F 66.1 °F 30.05 in East 7.0 mph 4.9 mph 64% 0.00 in 269.00 W/m2
17:19 79.3 °F 66.1 °F 30.05 in ENE 7.0 mph 5.3 mph 64% 0.00 in 269.00 W/m2
17:19 79.3 °F 66.1 °F 30.05 in ENE 5.8 mph 5.5 mph 64% 0.00 in 269.00 W/m2
17:19 79.2 °F 66.0 °F 30.05 in East 8.0 mph 5.7 mph 64% 0.00 in 269.00 W/m2
17:19 79.2 °F 66.0 °F 30.05 in East 7.0 mph 5.8 mph 64% 0.00 in 269.00 W/m2
17:19 79.2 °F 66.0 °F 30.05 in East 6.0 mph 5.9 mph 64% 0.00 in 269.00 W/m2
17:19 79.2 °F 66.0 °F 30.05 in ENE 5.8 mph 5.8 mph 64% 0.00 in 269.00 W/m2
17:20 79.2 °F 66.0 °F 30.05 in East 8.1 mph 5.7 mph 64% 0.00 in 269.00 W/m2
17:20 79.2 °F 66.0 °F 30.05 in East 8.1 mph 5.7 mph 64% 0.00 in 269.00 W/m2
17:20 79.2 °F 66.0 °F 30.05 in East 8.1 mph 5.7 mph 64% 0.00 in 269.00 W/m2
17:20 79.2 °F 66.0 °F 30.05 in ENE 8.1 mph 5.5 mph 64% 0.00 in 269.00 W/m2
17:20 79.2 °F 66.0 °F 30.05 in ENE 8.1 mph 5.4 mph 64% 0.00 in 269.00 W/m2
17:20 79.2 °F 66.0 °F 30.05 in ENE 8.1 mph 5.5 mph 64% 0.00 in 269.00 W/m2
17:20 79.2 °F 66.0 °F 30.05 in ENE 8.1 mph 5.5 mph 64% 0.00 in 269.00 W/m2
17:20 79.2 °F 66.0 °F 30.05 in ENE 8.1 mph 5.3 mph 64% 0.00 in 269.00 W/m2
17:20 79.2 °F 66.0 °F 30.05 in ENE 8.1 mph 4.9 mph 64% 0.00 in 269.00 W/m2
17:20 79.1 °F 65.9 °F 30.05 in ENE 8.1 mph 4.6 mph 64% 0.00 in 269.00 W/m2
17:20 79.1 °F 65.9 °F 30.05 in East 8.1 mph 4.4 mph 64% 0.00 in 271.00 W/m2
17:20 79.1 °F 65.9 °F 30.05 in ENE 8.1 mph 4.3 mph 64% 0.00 in 271.00 W/m2
17:21 79.1 °F 65.9 °F 30.05 in ENE 8.1 mph 4.1 mph 64% 0.00 in 271.00 W/m2
17:21 79.1 °F 65.9 °F 30.05 in ENE 6.9 mph 4.1 mph 64% 0.00 in 271.00 W/m2
17:21 79.1 °F 65.9 °F 30.05 in ENE 6.9 mph 4.2 mph 64% 0.00 in 271.00 W/m2
17:21 79.1 °F 65.9 °F 30.05 in ENE 8.0 mph 4.5 mph 64% 0.00 in 271.00 W/m2
17:21 79.1 °F 65.9 °F 30.05 in ENE 7.0 mph 4.6 mph 64% 0.00 in 271.00 W/m2
17:21 79.1 °F 65.9 °F 30.05 in ENE 6.9 mph 4.7 mph 64% 0.00 in 271.00 W/m2
17:21 79.1 °F 65.9 °F 30.05 in East 6.9 mph 4.5 mph 64% 0.00 in 271.00 W/m2
17:21 79.1 °F 65.9 °F 30.05 in East 6.9 mph 4.5 mph 64% 0.00 in 271.00 W/m2
17:21 79.1 °F 65.9 °F 30.05 in East 6.9 mph 4.6 mph 64% 0.00 in 271.00 W/m2
17:21 79.1 °F 65.9 °F 30.05 in ENE 6.9 mph 4.7 mph 64% 0.00 in 292.00 W/m2
17:21 79.0 °F 65.8 °F 30.05 in East 6.9 mph 4.7 mph 64% 0.00 in 292.00 W/m2
17:21 79.0 °F 65.8 °F 30.05 in East 6.9 mph 4.9 mph 64% 0.00 in 292.00 W/m2
17:21 79.0 °F 65.8 °F 30.05 in East 6.9 mph 4.7 mph 64% 0.00 in 292.00 W/m2
17:22 79.0 °F 65.8 °F 30.05 in East 8.1 mph 5.0 mph 64% 0.00 in 292.00 W/m2
17:22 79.0 °F 65.8 °F 30.05 in ENE 8.1 mph 5.2 mph 64% 0.00 in 292.00 W/m2
17:22 79.0 °F 65.8 °F 30.05 in ENE 8.1 mph 5.2 mph 64% 0.00 in 292.00 W/m2
17:22 79.0 °F 65.8 °F 30.05 in East 8.1 mph 4.6 mph 64% 0.00 in 292.00 W/m2
17:22 79.0 °F 65.8 °F 30.05 in East 8.1 mph 4.4 mph 64% 0.00 in 292.00 W/m2
17:22 79.0 °F 65.8 °F 30.05 in ENE 8.1 mph 4.2 mph 64% 0.00 in 292.00 W/m2
17:22 79.0 °F 65.8 °F 30.05 in ESE 8.1 mph 4.1 mph 64% 0.00 in 281.00 W/m2
17:22 79.0 °F 65.8 °F 30.05 in East 8.1 mph 3.9 mph 64% 0.00 in 281.00 W/m2
17:22 79.0 °F 65.8 °F 30.05 in East 8.1 mph 3.7 mph 64% 0.00 in 281.00 W/m2
17:22 78.9 °F 65.7 °F 30.05 in East 8.1 mph 3.7 mph 64% 0.00 in 281.00 W/m2
17:22 78.9 °F 65.7 °F 30.05 in ENE 8.1 mph 3.7 mph 64% 0.00 in 281.00 W/m2
17:22 78.9 °F 65.7 °F 30.05 in East 8.1 mph 3.7 mph 64% 0.00 in 281.00 W/m2
17:23 78.9 °F 65.7 °F 30.05 in East 6.9 mph 3.4 mph 64% 0.00 in 281.00 W/m2
17:23 78.9 °F 66.1 °F 30.05 in East 7.0 mph 3.5 mph 65% 0.00 in 281.00 W/m2
17:23 78.9 °F 66.1 °F 30.05 in East 6.9 mph 3.7 mph 65% 0.00 in 281.00 W/m2
17:23 78.9 °F 66.1 °F 30.05 in ENE 6.9 mph 3.9 mph 65% 0.00 in 281.00 W/m2
17:23 78.9 °F 66.1 °F 30.05 in ENE 6.9 mph 3.9 mph 65% 0.00 in 325.00 W/m2
17:23 78.9 °F 66.1 °F 30.05 in ENE 6.9 mph 3.8 mph 65% 0.00 in 325.00 W/m2
17:23 78.9 °F 66.1 °F 30.05 in ENE 6.9 mph 3.7 mph 65% 0.00 in 325.00 W/m2
17:23 78.9 °F 66.1 °F 30.05 in East 6.9 mph 3.6 mph 65% 0.00 in 325.00 W/m2
17:23 78.9 °F 66.1 °F 30.05 in East 6.9 mph 3.7 mph 65% 0.00 in 325.00 W/m2
17:23 78.9 °F 66.1 °F 30.05 in East 7.0 mph 3.7 mph 65% 0.00 in 325.00 W/m2
17:23 78.9 °F 66.1 °F 30.05 in East 7.0 mph 3.8 mph 65% 0.00 in 325.00 W/m2
17:23 78.9 °F 65.7 °F 30.05 in East 6.9 mph 4.0 mph 64% 0.00 in 325.00 W/m2
17:24 78.9 °F 65.7 °F 30.05 in East 6.9 mph 4.2 mph 64% 0.00 in 325.00 W/m2
17:24 78.9 °F 65.7 °F 30.05 in East 6.9 mph 4.3 mph 64% 0.00 in 325.00 W/m2
17:24 78.9 °F 65.7 °F 30.05 in East 6.9 mph 4.0 mph 64% 0.00 in 325.00 W/m2
17:24 78.8 °F 65.6 °F 30.05 in East 6.9 mph 3.7 mph 64% 0.00 in 348.00 W/m2
17:24 78.8 °F 65.6 °F 30.05 in East 6.9 mph 3.6 mph 64% 0.00 in 348.00 W/m2
17:24 78.8 °F 65.6 °F 30.05 in East 6.9 mph 3.6 mph 64% 0.00 in 348.00 W/m2
17:24 78.8 °F 65.6 °F 30.05 in East 6.9 mph 3.6 mph 64% 0.00 in 348.00 W/m2
17:24 78.8 °F 65.6 °F 30.05 in East 6.9 mph 3.8 mph 64% 0.00 in 348.00 W/m2
17:24 78.8 °F 65.6 °F 30.05 in ENE 6.9 mph 4.0 mph 64% 0.00 in 348.00 W/m2
17:24 78.8 °F 66.0 °F 30.05 in ENE 6.9 mph 4.0 mph 65% 0.00 in 348.00 W/m2
17:24 78.8 °F 66.0 °F 30.05 in ENE 6.9 mph 3.9 mph 65% 0.00 in 348.00 W/m2
17:24 78.8 °F 66.0 °F 30.05 in ENE 6.9 mph 3.7 mph 65% 0.00 in 348.00 W/m2
17:24 78.8 °F 66.0 °F 30.05 in ENE 6.9 mph 3.5 mph 65% 0.00 in 348.00 W/m2
17:25 78.8 °F 66.0 °F 30.05 in ENE 6.9 mph 3.4 mph 65% 0.00 in 348.00 W/m2
17:25 78.8 °F 66.0 °F 30.05 in East 5.8 mph 3.2 mph 65% 0.00 in 392.00 W/m2
17:25 78.8 °F 66.0 °F 30.05 in East 6.0 mph 3.2 mph 65% 0.00 in 392.00 W/m2
17:25 78.8 °F 66.0 °F 30.05 in East 5.8 mph 3.3 mph 65% 0.00 in 392.00 W/m2
17:25 78.8 °F 66.0 °F 30.05 in East 5.8 mph 3.3 mph 65% 0.00 in 392.00 W/m2
17:25 78.8 °F 66.0 °F 30.05 in East 5.8 mph 3.3 mph 65% 0.00 in 392.00 W/m2
17:25 78.8 °F 66.0 °F 30.05 in East 5.8 mph 3.3 mph 65% 0.00 in 392.00 W/m2
17:25 78.8 °F 66.0 °F 30.05 in East 5.8 mph 3.3 mph 65% 0.00 in 392.00 W/m2
17:25 78.8 °F 66.5 °F 30.05 in East 5.8 mph 3.3 mph 66% 0.00 in 392.00 W/m2
17:25 78.8 °F 66.5 °F 30.05 in ENE 5.8 mph 3.4 mph 66% 0.00 in 392.00 W/m2
17:25 78.8 °F 66.5 °F 30.05 in ENE 5.8 mph 3.4 mph 66% 0.00 in 392.00 W/m2
17:25 78.8 °F 66.5 °F 30.05 in ENE 5.8 mph 3.4 mph 66% 0.00 in 392.00 W/m2
17:26 78.8 °F 66.5 °F 30.05 in ENE 5.8 mph 3.2 mph 66% 0.00 in 392.00 W/m2
17:26 78.8 °F 66.5 °F 30.05 in ENE 5.8 mph 3.2 mph 66% 0.00 in 392.00 W/m2
17:26 78.8 °F 66.5 °F 30.05 in ENE 5.8 mph 2.8 mph 66% 0.00 in 392.00 W/m2
17:26 78.8 °F 66.5 °F 30.05 in East 6.0 mph 2.7 mph 66% 0.00 in 392.00 W/m2
17:26 78.8 °F 66.5 °F 30.05 in East 7.0 mph 2.8 mph 66% 0.00 in 392.00 W/m2
17:26 78.8 °F 66.5 °F 30.05 in East 6.0 mph 2.9 mph 66% 0.00 in 392.00 W/m2
17:26 78.8 °F 66.5 °F 30.05 in East 5.8 mph 3.0 mph 66% 0.00 in 392.00 W/m2
17:26 78.8 °F 66.9 °F 30.05 in East 5.8 mph 3.1 mph 67% 0.00 in 392.00 W/m2
17:26 78.8 °F 66.9 °F 30.05 in East 5.8 mph 3.0 mph 67% 0.00 in 392.00 W/m2
17:26 78.8 °F 66.9 °F 30.05 in ESE 5.8 mph 2.9 mph 67% 0.00 in 392.00 W/m2
17:26 78.8 °F 66.9 °F 30.05 in East 5.8 mph 2.9 mph 67% 0.00 in 392.00 W/m2
17:26 78.8 °F 66.9 °F 30.05 in East 5.8 mph 2.8 mph 67% 0.00 in 392.00 W/m2
17:26 78.9 °F 67.0 °F 30.05 in ENE 5.8 mph 2.8 mph 67% 0.00 in 274.00 W/m2
17:26 78.9 °F 67.0 °F 30.05 in East 5.8 mph 2.9 mph 67% 0.00 in 274.00 W/m2
17:27 78.8 °F 66.9 °F 30.05 in East 6.9 mph 3.1 mph 67% 0.00 in 274.00 W/m2
17:27 78.8 °F 66.9 °F 30.05 in ESE 6.9 mph 3.3 mph 67% 0.00 in 274.00 W/m2
17:27 78.8 °F 66.9 °F 30.05 in North 6.9 mph 3.5 mph 67% 0.00 in 274.00 W/m2
17:27 78.8 °F 66.9 °F 30.05 in East 6.9 mph 3.7 mph 67% 0.00 in 274.00 W/m2
17:27 78.8 °F 66.9 °F 30.05 in ENE 6.9 mph 3.7 mph 67% 0.00 in 274.00 W/m2
17:27 78.8 °F 66.9 °F 30.05 in ENE 6.9 mph 3.5 mph 67% 0.00 in 274.00 W/m2
17:27 78.9 °F 67.0 °F 30.05 in ENE 6.9 mph 3.3 mph 67% 0.00 in 274.00 W/m2
17:27 78.9 °F 67.0 °F 30.05 in NE 6.9 mph 3.3 mph 67% 0.00 in 274.00 W/m2
17:27 78.9 °F 67.0 °F 30.05 in ENE 6.9 mph 3.4 mph 67% 0.00 in 274.00 W/m2
17:27 78.9 °F 67.0 °F 30.05 in ENE 6.9 mph 3.4 mph 67% 0.00 in 274.00 W/m2
17:27 78.9 °F 67.0 °F 30.05 in ENE 6.9 mph 3.6 mph 67% 0.00 in 272.00 W/m2
17:27 78.9 °F 67.0 °F 30.05 in ENE 6.9 mph 3.7 mph 67% 0.00 in 272.00 W/m2
17:27 78.9 °F 67.0 °F 30.05 in ENE 6.9 mph 3.7 mph 67% 0.00 in 272.00 W/m2
17:28 78.9 °F 67.0 °F 30.05 in ENE 6.9 mph 3.7 mph 67% 0.00 in 272.00 W/m2
17:28 78.9 °F 67.0 °F 30.05 in ENE 5.8 mph 3.7 mph 67% 0.00 in 272.00 W/m2
17:28 78.9 °F 66.6 °F 30.05 in East 7.0 mph 4.0 mph 66% 0.00 in 272.00 W/m2
17:28 78.9 °F 66.6 °F 30.05 in ENE 7.0 mph 4.2 mph 66% 0.00 in 272.00 W/m2
17:28 78.9 °F 66.6 °F 30.05 in East 6.0 mph 4.2 mph 66% 0.00 in 272.00 W/m2
17:28 78.9 °F 66.6 °F 30.05 in North 5.8 mph 4.4 mph 66% 0.00 in 272.00 W/m2
17:28 78.9 °F 66.6 °F 30.05 in East 7.0 mph 4.6 mph 66% 0.00 in 272.00 W/m2
17:28 78.9 °F 66.6 °F 30.05 in ENE 7.0 mph 4.9 mph 66% 0.00 in 283.00 W/m2
17:28 78.9 °F 66.6 °F 30.05 in East 9.0 mph 5.1 mph 66% 0.00 in 283.00 W/m2
17:28 78.9 °F 66.6 °F 30.05 in ENE 8.0 mph 5.4 mph 66% 0.00 in 283.00 W/m2
17:28 78.8 °F 66.5 °F 30.05 in East 8.0 mph 5.6 mph 66% 0.00 in 283.00 W/m2
17:28 78.8 °F 66.5 °F 30.05 in ENE 8.0 mph 6.2 mph 66% 0.00 in 283.00 W/m2
17:28 78.8 °F 66.5 °F 30.05 in East 8.0 mph 6.4 mph 66% 0.00 in 283.00 W/m2
17:29 78.8 °F 66.5 °F 30.05 in ENE 9.2 mph 6.5 mph 66% 0.00 in 283.00 W/m2
17:29 78.9 °F 65.7 °F 30.05 in East 9.2 mph 6.6 mph 64% 0.00 in 283.00 W/m2
17:29 78.9 °F 65.7 °F 30.05 in ENE 9.2 mph 6.5 mph 64% 0.00 in 283.00 W/m2
17:29 78.8 °F 65.6 °F 30.05 in NE 9.2 mph 6.1 mph 64% 0.00 in 283.00 W/m2
17:29 78.8 °F 65.6 °F 30.05 in ENE 9.2 mph 6.3 mph 64% 0.00 in 292.00 W/m2
17:29 78.8 °F 65.6 °F 30.05 in ENE 9.2 mph 6.2 mph 64% 0.00 in 292.00 W/m2
17:29 78.8 °F 65.6 °F 30.05 in ENE 9.2 mph 6.3 mph 64% 0.00 in 292.00 W/m2
17:29 78.8 °F 65.6 °F 30.05 in East 9.2 mph 6.2 mph 64% 0.00 in 292.00 W/m2
17:29 78.8 °F 65.6 °F 30.05 in ENE 9.2 mph 6.2 mph 64% 0.00 in 292.00 W/m2
17:29 78.8 °F 65.6 °F 30.05 in East 9.2 mph 6.2 mph 64% 0.00 in 292.00 W/m2
17:29 78.8 °F 65.6 °F 30.05 in East 9.2 mph 6.3 mph 64% 0.00 in 292.00 W/m2
17:29 78.8 °F 65.6 °F 30.05 in ENE 9.2 mph 6.2 mph 64% 0.00 in 292.00 W/m2
17:29 78.8 °F 66.0 °F 30.05 in ENE 9.2 mph 5.9 mph 65% 0.00 in 292.00 W/m2
17:30 78.8 °F 66.0 °F 30.05 in ENE 9.2 mph 5.7 mph 65% 0.00 in 292.00 W/m2
17:30 78.8 °F 66.0 °F 30.05 in ENE 8.1 mph 5.7 mph 65% 0.00 in 292.00 W/m2
17:30 78.8 °F 66.0 °F 30.05 in East 8.1 mph 5.8 mph 65% 0.00 in 292.00 W/m2
17:30 78.8 °F 66.0 °F 30.05 in ENE 8.1 mph 5.9 mph 65% 0.00 in 272.00 W/m2
17:30 78.8 °F 66.0 °F 30.05 in ENE 8.1 mph 6.3 mph 65% 0.00 in 272.00 W/m2
17:30 78.8 °F 66.0 °F 30.05 in ENE 8.1 mph 6.5 mph 65% 0.00 in 272.00 W/m2
17:30 78.8 °F 66.0 °F 30.05 in ENE 8.1 mph 6.6 mph 65% 0.00 in 272.00 W/m2
17:30 78.8 °F 66.0 °F 30.05 in ENE 8.1 mph 6.3 mph 65% 0.00 in 272.00 W/m2
17:30 78.8 °F 66.0 °F 30.05 in ENE 8.1 mph 6.1 mph 65% 0.00 in 272.00 W/m2
17:30 78.8 °F 66.0 °F 30.05 in ENE 8.1 mph 5.9 mph 65% 0.00 in 272.00 W/m2
17:30 78.8 °F 66.0 °F 30.05 in ENE 8.1 mph 5.6 mph 65% 0.00 in 272.00 W/m2
17:30 78.8 °F 66.0 °F 30.05 in ENE 8.1 mph 5.5 mph 65% 0.00 in 272.00 W/m2
17:31 78.8 °F 66.0 °F 30.05 in ENE 8.1 mph 5.7 mph 65% 0.00 in 272.00 W/m2
17:31 78.8 °F 66.0 °F 30.05 in ENE 8.1 mph 5.7 mph 65% 0.00 in 278.00 W/m2
17:31 78.8 °F 66.0 °F 30.05 in ENE 8.1 mph 5.7 mph 65% 0.00 in 278.00 W/m2
17:31 78.8 °F 66.0 °F 30.05 in ENE 8.1 mph 5.6 mph 65% 0.00 in 278.00 W/m2
17:31 78.8 °F 66.0 °F 30.05 in ENE 8.1 mph 5.5 mph 65% 0.00 in 278.00 W/m2
17:31 78.7 °F 65.9 °F 30.05 in ENE 8.1 mph 5.3 mph 65% 0.00 in 278.00 W/m2
17:31 78.7 °F 65.9 °F 30.05 in East 8.1 mph 5.2 mph 65% 0.00 in 278.00 W/m2
17:31 78.7 °F 65.9 °F 30.05 in East 8.1 mph 5.2 mph 65% 0.00 in 278.00 W/m2
17:31 78.8 °F 66.0 °F 30.05 in East 8.1 mph 5.2 mph 65% 0.00 in 278.00 W/m2
17:31 78.7 °F 65.9 °F 30.05 in East 8.1 mph 5.3 mph 65% 0.00 in 278.00 W/m2
17:31 78.7 °F 65.9 °F 30.05 in ENE 8.1 mph 5.5 mph 65% 0.00 in 278.00 W/m2
17:31 78.7 °F 65.9 °F 30.05 in ENE 8.1 mph 5.5 mph 65% 0.00 in 278.00 W/m2
17:31 78.7 °F 65.9 °F 30.05 in East 8.1 mph 5.6 mph 65% 0.00 in 278.00 W/m2
17:31 78.7 °F 65.9 °F 30.05 in East 8.1 mph 6.0 mph 65% 0.00 in 278.00 W/m2
17:32 78.7 °F 65.9 °F 30.05 in ENE 8.1 mph 6.0 mph 65% 0.00 in 283.00 W/m2
17:32 78.7 °F 65.9 °F 30.05 in ENE 8.1 mph 6.0 mph 65% 0.00 in 283.00 W/m2
17:32 78.7 °F 65.9 °F 30.05 in ENE 8.1 mph 6.0 mph 65% 0.00 in 283.00 W/m2
17:32 78.7 °F 65.9 °F 30.05 in ENE 8.1 mph 5.8 mph 65% 0.00 in 283.00 W/m2
17:32 78.7 °F 65.9 °F 30.05 in East 8.1 mph 5.8 mph 65% 0.00 in 283.00 W/m2
17:32 78.7 °F 65.9 °F 30.05 in East 8.1 mph 6.0 mph 65% 0.00 in 283.00 W/m2
17:32 78.7 °F 65.9 °F 30.05 in East 8.1 mph 6.1 mph 65% 0.00 in 283.00 W/m2
17:32 78.7 °F 65.9 °F 30.05 in East 8.1 mph 6.0 mph 65% 0.00 in 283.00 W/m2
17:32 78.7 °F 65.9 °F 30.05 in East 8.1 mph 5.9 mph 65% 0.00 in 283.00 W/m2
17:32 78.7 °F 65.9 °F 30.05 in East 8.1 mph 5.9 mph 65% 0.00 in 283.00 W/m2
17:32 78.7 °F 65.9 °F 30.05 in East 8.1 mph 5.9 mph 65% 0.00 in 283.00 W/m2
17:32 78.7 °F 65.9 °F 30.05 in ENE 8.1 mph 5.8 mph 65% 0.00 in 278.00 W/m2
17:32 78.7 °F 65.9 °F 30.05 in East 8.1 mph 5.5 mph 65% 0.00 in 278.00 W/m2
17:32 78.7 °F 65.9 °F 30.05 in East 8.1 mph 5.2 mph 65% 0.00 in 278.00 W/m2
17:33 78.7 °F 65.9 °F 30.05 in East 8.1 mph 4.8 mph 65% 0.00 in 278.00 W/m2
17:33 78.7 °F 65.9 °F 30.05 in East 6.9 mph 4.8 mph 65% 0.00 in 278.00 W/m2
17:33 78.7 °F 65.9 °F 30.05 in East 6.9 mph 4.9 mph 65% 0.00 in 278.00 W/m2
17:33 78.7 °F 65.9 °F 30.05 in East 6.9 mph 5.0 mph 65% 0.00 in 278.00 W/m2
17:33 78.7 °F 65.9 °F 30.05 in East 6.9 mph 5.1 mph 65% 0.00 in 278.00 W/m2
17:33 78.7 °F 65.9 °F 30.05 in East 6.9 mph 5.1 mph 65% 0.00 in 278.00 W/m2
17:33 78.7 °F 65.9 °F 30.05 in East 6.9 mph 4.9 mph 65% 0.00 in 278.00 W/m2
17:33 78.7 °F 65.9 °F 30.05 in East 6.9 mph 4.7 mph 65% 0.00 in 278.00 W/m2
17:33 78.7 °F 65.9 °F 30.05 in ENE 6.9 mph 4.5 mph 65% 0.00 in 278.00 W/m2
17:33 78.7 °F 65.9 °F 30.05 in ENE 6.9 mph 4.2 mph 65% 0.00 in 278.00 W/m2
17:33 78.7 °F 65.9 °F 30.05 in ENE 6.9 mph 3.9 mph 65% 0.00 in 271.00 W/m2
17:33 78.7 °F 65.9 °F 30.05 in East 6.9 mph 3.7 mph 65% 0.00 in 271.00 W/m2
17:33 78.7 °F 65.9 °F 30.05 in ENE 6.9 mph 3.7 mph 65% 0.00 in 271.00 W/m2
17:33 78.6 °F 65.8 °F 30.05 in East 6.9 mph 3.9 mph 65% 0.00 in 271.00 W/m2
17:34 78.7 °F 65.9 °F 30.05 in East 6.0 mph 4.0 mph 65% 0.00 in 271.00 W/m2
17:34 78.7 °F 65.9 °F 30.05 in East 5.8 mph 4.0 mph 65% 0.00 in 271.00 W/m2
17:34 78.6 °F 65.8 °F 30.05 in East 5.8 mph 3.8 mph 65% 0.00 in 271.00 W/m2
17:34 78.6 °F 65.8 °F 30.05 in East 5.8 mph 3.6 mph 65% 0.00 in 271.00 W/m2
17:34 78.6 °F 65.8 °F 30.05 in East 5.8 mph 3.4 mph 65% 0.00 in 264.00 W/m2
17:34 78.6 °F 65.8 °F 30.05 in East 5.8 mph 3.5 mph 65% 0.00 in 264.00 W/m2
17:34 78.6 °F 65.8 °F 30.05 in East 5.8 mph 3.6 mph 65% 0.00 in 264.00 W/m2
17:34 78.6 °F 65.8 °F 30.05 in East 5.8 mph 3.8 mph 65% 0.00 in 264.00 W/m2
17:34 78.6 °F 65.8 °F 30.05 in East 5.8 mph 4.0 mph 65% 0.00 in 264.00 W/m2
17:34 78.6 °F 65.8 °F 30.05 in East 5.8 mph 4.0 mph 65% 0.00 in 264.00 W/m2
17:34 78.6 °F 65.8 °F 30.05 in East 5.8 mph 4.0 mph 65% 0.00 in 264.00 W/m2
17:35 78.6 °F 65.8 °F 30.05 in East 5.8 mph 3.7 mph 65% 0.00 in 264.00 W/m2
17:35 78.6 °F 65.8 °F 30.05 in ENE 5.8 mph 3.5 mph 65% 0.00 in 264.00 W/m2
17:35 78.6 °F 65.8 °F 30.05 in East 5.8 mph 2.9 mph 65% 0.00 in 264.00 W/m2
17:35 78.6 °F 65.8 °F 30.05 in ENE 5.8 mph 2.6 mph 65% 0.00 in 258.00 W/m2
17:35 78.6 °F 65.8 °F 30.05 in ENE 5.8 mph 2.3 mph 65% 0.00 in 258.00 W/m2
17:35 78.6 °F 65.8 °F 30.05 in ENE 5.8 mph 2.3 mph 65% 0.00 in 258.00 W/m2
17:35 78.6 °F 65.8 °F 30.05 in ENE 5.8 mph 2.4 mph 65% 0.00 in 258.00 W/m2
17:35 78.6 °F 65.8 °F 30.05 in ENE 5.8 mph 2.4 mph 65% 0.00 in 258.00 W/m2
17:35 78.6 °F 65.8 °F 30.05 in ENE 5.8 mph 2.5 mph 65% 0.00 in 258.00 W/m2
17:35 78.6 °F 65.8 °F 30.05 in ENE 5.8 mph 2.4 mph 65% 0.00 in 258.00 W/m2
17:35 78.6 °F 65.8 °F 30.05 in East 5.8 mph 2.1 mph 65% 0.00 in 258.00 W/m2
17:35 78.6 °F 66.3 °F 30.05 in East 5.8 mph 1.9 mph 66% 0.00 in 258.00 W/m2
17:35 78.6 °F 66.3 °F 30.05 in East 5.8 mph 1.8 mph 66% 0.00 in 258.00 W/m2
17:36 78.6 °F 66.3 °F 30.05 in ENE 3.5 mph 1.8 mph 66% 0.00 in 258.00 W/m2
17:36 78.6 °F 66.3 °F 30.05 in ENE 3.5 mph 1.9 mph 66% 0.00 in 258.00 W/m2
17:36 78.6 °F 66.3 °F 30.05 in ENE 3.5 mph 2.1 mph 66% 0.00 in 250.00 W/m2
17:36 78.6 °F 66.3 °F 30.05 in ENE 3.5 mph 2.2 mph 66% 0.00 in 250.00 W/m2
17:36 78.6 °F 66.3 °F 30.05 in East 6.0 mph 2.9 mph 66% 0.00 in 250.00 W/m2
17:36 78.6 °F 66.3 °F 30.05 in East 6.0 mph 3.1 mph 66% 0.00 in 250.00 W/m2
17:36 78.6 °F 66.3 °F 30.05 in East 5.0 mph 3.4 mph 66% 0.00 in 250.00 W/m2
17:36 78.6 °F 66.3 °F 30.05 in East 5.0 mph 3.7 mph 66% 0.00 in 250.00 W/m2
17:36 78.6 °F 66.3 °F 30.05 in East 3.5 mph 3.8 mph 66% 0.00 in 250.00 W/m2
17:37 78.6 °F 66.3 °F 30.05 in ENE 5.8 mph 3.9 mph 66% 0.00 in 250.00 W/m2
17:37 78.6 °F 66.3 °F 30.05 in East 5.8 mph 3.9 mph 66% 0.00 in 241.00 W/m2
17:37 78.6 °F 66.3 °F 30.05 in ENE 5.8 mph 4.1 mph 66% 0.00 in 241.00 W/m2
17:37 78.6 °F 66.3 °F 30.05 in ENE 5.8 mph 4.1 mph 66% 0.00 in 241.00 W/m2
17:37 78.6 °F 66.3 °F 30.05 in ENE 5.8 mph 4.1 mph 66% 0.00 in 241.00 W/m2
17:37 78.6 °F 66.3 °F 30.05 in East 5.8 mph 4.1 mph 66% 0.00 in 241.00 W/m2
17:37 78.6 °F 66.3 °F 30.05 in ENE 5.8 mph 4.1 mph 66% 0.00 in 241.00 W/m2
17:37 78.6 °F 66.3 °F 30.05 in ENE 5.8 mph 3.7 mph 66% 0.00 in 241.00 W/m2
17:37 78.6 °F 66.3 °F 30.05 in East 5.8 mph 3.6 mph 66% 0.00 in 241.00 W/m2
17:37 78.6 °F 66.3 °F 30.05 in East 5.8 mph 3.4 mph 66% 0.00 in 241.00 W/m2
17:37 78.6 °F 66.3 °F 30.05 in East 6.0 mph 3.3 mph 66% 0.00 in 241.00 W/m2
17:37 78.6 °F 66.3 °F 30.05 in East 6.0 mph 3.5 mph 66% 0.00 in 234.00 W/m2
17:38 78.6 °F 66.3 °F 30.05 in ENE 5.8 mph 3.6 mph 66% 0.00 in 234.00 W/m2
17:38 78.6 °F 66.3 °F 30.05 in ENE 5.8 mph 3.5 mph 66% 0.00 in 234.00 W/m2
17:38 78.6 °F 66.3 °F 30.05 in ENE 5.8 mph 3.4 mph 66% 0.00 in 234.00 W/m2
17:38 78.6 °F 66.3 °F 30.05 in ENE 5.8 mph 3.3 mph 66% 0.00 in 234.00 W/m2
17:38 78.6 °F 66.3 °F 30.05 in ENE 5.8 mph 3.2 mph 66% 0.00 in 234.00 W/m2
17:38 78.6 °F 66.3 °F 30.05 in ENE 5.8 mph 3.1 mph 66% 0.00 in 234.00 W/m2
17:38 78.6 °F 66.7 °F 30.05 in ENE 5.8 mph 2.7 mph 67% 0.00 in 234.00 W/m2
17:38 78.6 °F 66.7 °F 30.05 in ENE 5.8 mph 2.3 mph 67% 0.00 in 234.00 W/m2
17:38 78.6 °F 66.7 °F 30.05 in ENE 5.8 mph 2.1 mph 67% 0.00 in 234.00 W/m2
17:38 78.6 °F 66.7 °F 30.05 in NE 5.8 mph 1.9 mph 67% 0.00 in 234.00 W/m2
17:38 78.6 °F 66.7 °F 30.05 in NE 5.8 mph 1.8 mph 67% 0.00 in 232.00 W/m2
17:38 78.6 °F 66.7 °F 30.05 in ENE 5.8 mph 1.7 mph 67% 0.00 in 232.00 W/m2
17:38 78.6 °F 66.7 °F 30.05 in ENE 5.8 mph 1.6 mph 67% 0.00 in 232.00 W/m2
17:38 78.6 °F 66.7 °F 30.05 in ENE 5.8 mph 1.5 mph 67% 0.00 in 232.00 W/m2
17:39 78.6 °F 66.7 °F 30.05 in ENE 5.8 mph 1.3 mph 67% 0.00 in 232.00 W/m2
17:39 78.6 °F 66.7 °F 30.05 in ENE 4.6 mph 1.3 mph 67% 0.00 in 232.00 W/m2
17:39 78.6 °F 66.7 °F 30.05 in ENE 4.6 mph 1.4 mph 67% 0.00 in 232.00 W/m2
17:39 78.6 °F 66.7 °F 30.05 in East 4.6 mph 1.4 mph 67% 0.00 in 232.00 W/m2
17:39 78.6 °F 66.7 °F 30.05 in East 4.6 mph 1.5 mph 67% 0.00 in 232.00 W/m2
17:39 78.6 °F 66.7 °F 30.05 in East 5.0 mph 1.6 mph 67% 0.00 in 232.00 W/m2
17:39 78.6 °F 66.7 °F 30.05 in ENE 4.6 mph 1.9 mph 67% 0.00 in 232.00 W/m2
17:39 78.6 °F 66.7 °F 30.05 in East 4.6 mph 2.0 mph 67% 0.00 in 232.00 W/m2
17:39 78.6 °F 66.7 °F 30.05 in East 4.6 mph 2.3 mph 67% 0.00 in 232.00 W/m2
17:39 78.6 °F 66.7 °F 30.05 in East 4.6 mph 2.4 mph 67% 0.00 in 232.00 W/m2
17:39 78.6 °F 66.7 °F 30.05 in ENE 4.6 mph 2.4 mph 67% 0.00 in 232.00 W/m2
17:39 78.6 °F 66.7 °F 30.05 in ENE 4.6 mph 2.3 mph 67% 0.00 in 232.00 W/m2
17:40 78.6 °F 66.7 °F 30.05 in ENE 4.6 mph 2.4 mph 67% 0.00 in 232.00 W/m2
17:40 78.6 °F 66.7 °F 30.05 in East 4.6 mph 2.4 mph 67% 0.00 in 232.00 W/m2
17:40 78.5 °F 66.6 °F 30.05 in East 4.6 mph 2.4 mph 67% 0.00 in 232.00 W/m2
17:40 78.5 °F 66.6 °F 30.05 in East 4.6 mph 2.3 mph 67% 0.00 in 232.00 W/m2
17:40 78.5 °F 66.6 °F 30.05 in East 4.6 mph 2.3 mph 67% 0.00 in 232.00 W/m2
17:40 78.5 °F 66.6 °F 30.05 in East 4.6 mph 2.3 mph 67% 0.00 in 232.00 W/m2
17:40 78.5 °F 66.6 °F 30.05 in East 4.6 mph 2.2 mph 67% 0.00 in 232.00 W/m2
17:40 78.6 °F 66.7 °F 30.05 in East 4.6 mph 2.0 mph 67% 0.00 in 230.00 W/m2
17:40 78.6 °F 66.7 °F 30.05 in East 4.6 mph 2.0 mph 67% 0.00 in 230.00 W/m2
17:40 78.6 °F 66.7 °F 30.05 in ENE 4.6 mph 1.7 mph 67% 0.00 in 230.00 W/m2
17:40 78.5 °F 66.6 °F 30.05 in ENE 4.6 mph 1.6 mph 67% 0.00 in 230.00 W/m2
17:40 78.5 °F 66.6 °F 30.05 in ENE 4.6 mph 1.4 mph 67% 0.00 in 230.00 W/m2
17:40 78.5 °F 66.6 °F 30.05 in East 4.6 mph 1.4 mph 67% 0.00 in 230.00 W/m2
17:40 78.5 °F 66.6 °F 30.05 in ENE 4.6 mph 1.4 mph 67% 0.00 in 230.00 W/m2
17:41 78.5 °F 67.1 °F 30.05 in East 4.6 mph 1.3 mph 68% 0.00 in 230.00 W/m2
17:41 78.5 °F 67.1 °F 30.05 in East 7.0 mph 1.3 mph 68% 0.00 in 230.00 W/m2
17:41 78.5 °F 67.1 °F 30.05 in East 7.0 mph 1.6 mph 68% 0.00 in 230.00 W/m2
17:41 78.5 °F 67.1 °F 30.05 in East 7.0 mph 2.0 mph 68% 0.00 in 230.00 W/m2
17:41 78.5 °F 67.1 °F 30.05 in East 6.0 mph 2.2 mph 68% 0.00 in 232.00 W/m2
17:41 78.5 °F 67.1 °F 30.05 in East 6.0 mph 2.6 mph 68% 0.00 in 232.00 W/m2
17:41 78.5 °F 67.1 °F 30.05 in East 5.0 mph 2.7 mph 68% 0.00 in 232.00 W/m2
17:41 78.5 °F 67.1 °F 30.05 in East 3.5 mph 3.3 mph 68% 0.00 in 232.00 W/m2
17:41 78.5 °F 67.1 °F 30.05 in East 5.0 mph 3.5 mph 68% 0.00 in 232.00 W/m2
17:41 78.5 °F 67.1 °F 30.05 in ENE 3.5 mph 3.8 mph 68% 0.00 in 232.00 W/m2
17:41 78.5 °F 67.1 °F 30.05 in ENE 3.5 mph 4.0 mph 68% 0.00 in 232.00 W/m2
17:41 78.5 °F 66.2 °F 30.05 in ENE 3.5 mph 4.2 mph 66% 0.00 in 232.00 W/m2
17:42 78.5 °F 66.2 °F 30.05 in East 6.9 mph 4.6 mph 66% 0.00 in 232.00 W/m2
17:42 78.5 °F 66.2 °F 30.05 in East 6.9 mph 4.6 mph 66% 0.00 in 232.00 W/m2
17:42 78.5 °F 66.2 °F 30.05 in ENE 6.9 mph 4.2 mph 66% 0.00 in 230.00 W/m2
17:42 78.5 °F 66.2 °F 30.05 in ENE 6.9 mph 3.9 mph 66% 0.00 in 230.00 W/m2
17:42 78.5 °F 66.2 °F 30.05 in East 6.9 mph 3.7 mph 66% 0.00 in 230.00 W/m2
17:42 78.5 °F 66.2 °F 30.05 in East 6.9 mph 3.6 mph 66% 0.00 in 230.00 W/m2
17:42 78.5 °F 66.2 °F 30.05 in East 6.9 mph 3.5 mph 66% 0.00 in 230.00 W/m2
17:42 78.4 °F 66.1 °F 30.05 in East 6.9 mph 3.4 mph 66% 0.00 in 230.00 W/m2
17:42 78.4 °F 66.1 °F 30.05 in East 6.9 mph 3.5 mph 66% 0.00 in 230.00 W/m2
17:42 78.4 °F 66.1 °F 30.05 in East 6.9 mph 3.6 mph 66% 0.00 in 230.00 W/m2
17:42 78.4 °F 66.1 °F 30.05 in ESE 7.0 mph 3.7 mph 66% 0.00 in 230.00 W/m2
17:42 78.4 °F 66.1 °F 30.05 in ESE 6.9 mph 3.9 mph 66% 0.00 in 230.00 W/m2
17:43 78.4 °F 66.1 °F 30.05 in East 6.9 mph 4.1 mph 66% 0.00 in 230.00 W/m2
17:43 78.4 °F 66.1 °F 30.05 in ENE 6.9 mph 4.2 mph 66% 0.00 in 232.00 W/m2
17:43 78.4 °F 66.1 °F 30.05 in ENE 6.9 mph 4.3 mph 66% 0.00 in 232.00 W/m2
17:43 78.4 °F 66.1 °F 30.05 in East 6.9 mph 4.3 mph 66% 0.00 in 232.00 W/m2
17:43 78.4 °F 66.1 °F 30.05 in East 6.9 mph 4.3 mph 66% 0.00 in 232.00 W/m2
17:43 78.4 °F 66.1 °F 30.05 in East 6.9 mph 4.4 mph 66% 0.00 in 232.00 W/m2
17:43 78.4 °F 66.5 °F 30.05 in East 6.9 mph 4.5 mph 67% 0.00 in 232.00 W/m2
17:43 78.4 °F 66.5 °F 30.05 in East 6.9 mph 4.3 mph 67% 0.00 in 232.00 W/m2
17:43 78.4 °F 66.5 °F 30.05 in East 6.9 mph 4.2 mph 67% 0.00 in 232.00 W/m2
17:43 78.4 °F 66.5 °F 30.05 in East 6.9 mph 4.0 mph 67% 0.00 in 229.00 W/m2
17:44 78.4 °F 66.5 °F 30.05 in East 6.9 mph 4.0 mph 67% 0.00 in 229.00 W/m2
17:44 78.4 °F 66.5 °F 30.05 in East 4.6 mph 3.9 mph 67% 0.00 in 229.00 W/m2
17:44 78.4 °F 66.5 °F 30.05 in East 4.6 mph 3.9 mph 67% 0.00 in 229.00 W/m2
17:44 78.4 °F 66.5 °F 30.05 in East 4.6 mph 3.6 mph 67% 0.00 in 229.00 W/m2
17:44 78.4 °F 67.0 °F 30.05 in East 4.6 mph 3.6 mph 68% 0.00 in 229.00 W/m2
17:44 78.4 °F 67.0 °F 30.05 in East 4.6 mph 3.4 mph 68% 0.00 in 229.00 W/m2
17:44 78.4 °F 67.0 °F 30.05 in East 4.6 mph 3.2 mph 68% 0.00 in 229.00 W/m2
17:44 78.4 °F 67.0 °F 30.05 in East 4.6 mph 3.1 mph 68% 0.00 in 229.00 W/m2
17:44 78.4 °F 67.0 °F 30.05 in ENE 4.6 mph 2.9 mph 68% 0.00 in 229.00 W/m2
17:44 78.4 °F 67.0 °F 30.05 in ENE 4.6 mph 2.9 mph 68% 0.00 in 221.00 W/m2
17:44 78.4 °F 67.0 °F 30.05 in East 4.6 mph 2.6 mph 68% 0.00 in 221.00 W/m2
17:44 78.4 °F 67.0 °F 30.05 in ENE 4.6 mph 2.6 mph 68% 0.00 in 221.00 W/m2
17:45 78.4 °F 67.0 °F 30.05 in ENE 4.6 mph 2.5 mph 68% 0.00 in 221.00 W/m2
17:45 78.4 °F 67.0 °F 30.05 in ENE 4.6 mph 2.5 mph 68% 0.00 in 221.00 W/m2
17:45 78.4 °F 67.4 °F 30.05 in ENE 4.6 mph 2.3 mph 69% 0.00 in 221.00 W/m2
17:45 78.4 °F 67.4 °F 30.05 in ENE 4.6 mph 2.1 mph 69% 0.00 in 221.00 W/m2
17:45 78.4 °F 67.4 °F 30.05 in ENE 4.6 mph 2.0 mph 69% 0.00 in 221.00 W/m2
17:45 78.4 °F 67.4 °F 30.05 in East 4.6 mph 1.8 mph 69% 0.00 in 221.00 W/m2
17:45 78.4 °F 67.4 °F 30.05 in East 4.6 mph 1.5 mph 69% 0.00 in 220.00 W/m2
17:45 78.4 °F 67.4 °F 30.05 in East 4.6 mph 1.4 mph 69% 0.00 in 220.00 W/m2
17:45 78.4 °F 67.4 °F 30.05 in East 6.0 mph 1.5 mph 69% 0.00 in 220.00 W/m2
17:45 78.4 °F 67.4 °F 30.05 in East 7.0 mph 1.7 mph 69% 0.00 in 220.00 W/m2
17:45 78.4 °F 67.4 °F 30.05 in East 7.0 mph 2.0 mph 69% 0.00 in 220.00 W/m2
17:46 78.4 °F 67.4 °F 30.05 in East 8.1 mph 2.6 mph 69% 0.00 in 220.00 W/m2
17:46 78.4 °F 67.4 °F 30.05 in ENE 8.1 mph 3.0 mph 69% 0.00 in 220.00 W/m2
17:46 78.3 °F 67.3 °F 30.05 in ENE 8.1 mph 3.2 mph 69% 0.00 in 220.00 W/m2
17:46 78.3 °F 67.3 °F 30.05 in ENE 8.1 mph 3.6 mph 69% 0.00 in 220.00 W/m2
17:46 78.3 °F 67.3 °F 30.05 in ENE 8.1 mph 3.9 mph 69% 0.00 in 220.00 W/m2
17:46 78.3 °F 67.3 °F 30.05 in ENE 8.1 mph 4.3 mph 69% 0.00 in 220.00 W/m2
17:46 78.3 °F 67.3 °F 30.05 in East 8.1 mph 4.8 mph 69% 0.00 in 218.00 W/m2
17:46 78.3 °F 67.3 °F 30.05 in ENE 8.1 mph 5.3 mph 69% 0.00 in 218.00 W/m2
17:46 78.3 °F 67.3 °F 30.05 in East 8.1 mph 5.8 mph 69% 0.00 in 218.00 W/m2
17:46 78.3 °F 67.3 °F 30.05 in East 8.1 mph 6.2 mph 69% 0.00 in 218.00 W/m2
17:46 78.3 °F 67.3 °F 30.05 in East 8.1 mph 6.4 mph 69% 0.00 in 218.00 W/m2
17:46 78.3 °F 67.3 °F 30.05 in ENE 8.1 mph 6.7 mph 69% 0.00 in 218.00 W/m2
17:46 78.3 °F 67.3 °F 30.05 in ENE 8.1 mph 6.7 mph 69% 0.00 in 218.00 W/m2
17:47 78.3 °F 66.9 °F 30.05 in ENE 8.1 mph 6.5 mph 68% 0.00 in 218.00 W/m2
17:47 78.3 °F 66.9 °F 30.05 in ENE 8.1 mph 6.5 mph 68% 0.00 in 218.00 W/m2
17:47 78.3 °F 66.9 °F 30.05 in East 8.1 mph 6.5 mph 68% 0.00 in 218.00 W/m2
17:47 78.3 °F 66.9 °F 30.05 in East 8.1 mph 6.4 mph 68% 0.00 in 218.00 W/m2
17:47 78.3 °F 66.9 °F 30.05 in ENE 8.1 mph 6.6 mph 68% 0.00 in 214.00 W/m2
17:47 78.2 °F 66.8 °F 30.05 in East 8.1 mph 6.2 mph 68% 0.00 in 214.00 W/m2
17:47 78.2 °F 66.8 °F 30.05 in East 8.1 mph 6.0 mph 68% 0.00 in 214.00 W/m2
17:47 78.2 °F 66.8 °F 30.05 in East 8.1 mph 5.9 mph 68% 0.00 in 214.00 W/m2
17:47 78.2 °F 66.8 °F 30.05 in East 8.1 mph 5.8 mph 68% 0.00 in 214.00 W/m2
17:47 78.2 °F 66.8 °F 30.05 in East 8.1 mph 5.8 mph 68% 0.00 in 214.00 W/m2
17:47 78.2 °F 66.8 °F 30.05 in East 8.1 mph 5.6 mph 68% 0.00 in 214.00 W/m2
17:48 78.2 °F 66.8 °F 30.05 in East 8.1 mph 5.7 mph 68% 0.00 in 214.00 W/m2
17:48 78.2 °F 66.8 °F 30.05 in East 8.1 mph 5.7 mph 68% 0.00 in 214.00 W/m2
17:48 78.2 °F 66.8 °F 30.05 in East 8.1 mph 5.8 mph 68% 0.00 in 211.00 W/m2
17:48 78.2 °F 66.8 °F 30.05 in East 8.1 mph 5.7 mph 68% 0.00 in 211.00 W/m2
17:48 78.2 °F 66.8 °F 30.05 in East 8.1 mph 5.8 mph 68% 0.00 in 211.00 W/m2
17:48 78.2 °F 66.8 °F 30.05 in East 8.1 mph 5.9 mph 68% 0.00 in 211.00 W/m2
17:48 78.2 °F 66.8 °F 30.05 in East 8.1 mph 6.0 mph 68% 0.00 in 211.00 W/m2
17:48 78.2 °F 66.8 °F 30.05 in East 8.1 mph 6.0 mph 68% 0.00 in 211.00 W/m2
17:48 78.2 °F 66.8 °F 30.05 in ENE 8.1 mph 6.3 mph 68% 0.00 in 211.00 W/m2
17:48 78.2 °F 66.8 °F 30.05 in East 8.1 mph 6.2 mph 68% 0.00 in 211.00 W/m2
17:49 78.2 °F 66.8 °F 30.05 in East 8.1 mph 6.3 mph 68% 0.00 in 211.00 W/m2
17:49 78.2 °F 66.8 °F 30.05 in East 6.9 mph 6.2 mph 68% 0.00 in 207.00 W/m2
17:49 78.2 °F 66.8 °F 30.05 in East 6.9 mph 6.2 mph 68% 0.00 in 207.00 W/m2
17:49 78.2 °F 66.8 °F 30.05 in East 7.0 mph 6.2 mph 68% 0.00 in 207.00 W/m2
17:49 78.1 °F 66.7 °F 30.05 in ENE 7.0 mph 6.2 mph 68% 0.00 in 207.00 W/m2
17:49 78.1 °F 66.7 °F 30.05 in ENE 6.9 mph 5.6 mph 68% 0.00 in 207.00 W/m2
17:49 78.1 °F 66.7 °F 30.05 in East 6.9 mph 5.4 mph 68% 0.00 in 207.00 W/m2
17:49 78.1 °F 66.7 °F 30.05 in East 6.9 mph 5.2 mph 68% 0.00 in 207.00 W/m2
17:49 78.1 °F 66.7 °F 30.05 in East 6.9 mph 5.0 mph 68% 0.00 in 207.00 W/m2
17:49 78.1 °F 66.7 °F 30.05 in ENE 6.9 mph 4.9 mph 68% 0.00 in 207.00 W/m2
17:49 78.1 °F 66.7 °F 30.05 in ENE 6.9 mph 4.9 mph 68% 0.00 in 207.00 W/m2
17:49 78.1 °F 66.7 °F 30.05 in ENE 6.9 mph 4.5 mph 68% 0.00 in 207.00 W/m2
17:49 78.1 °F 66.7 °F 30.05 in ENE 6.9 mph 4.5 mph 68% 0.00 in 207.00 W/m2
17:49 78.1 °F 66.7 °F 30.05 in ENE 6.9 mph 4.5 mph 68% 0.00 in 206.00 W/m2
17:50 78.1 °F 66.7 °F 30.04 in ENE 6.9 mph 4.4 mph 68% 0.00 in 206.00 W/m2
17:50 78.1 °F 66.7 °F 30.04 in ENE 6.9 mph 4.4 mph 68% 0.00 in 206.00 W/m2
17:50 78.1 °F 66.7 °F 30.04 in ENE 6.9 mph 4.2 mph 68% 0.00 in 206.00 W/m2
17:50 78.1 °F 66.7 °F 30.04 in East 6.9 mph 4.1 mph 68% 0.00 in 206.00 W/m2
17:50 78.1 °F 66.7 °F 30.04 in ENE 6.9 mph 4.2 mph 68% 0.00 in 206.00 W/m2
17:50 78.1 °F 66.7 °F 30.04 in ENE 6.9 mph 4.3 mph 68% 0.00 in 206.00 W/m2
18:01 77.9 °F 67.3 °F 30.04 in East 6.9 mph 4.7 mph 70% 0.00 in 258.00 W/m2
18:13 78.5 °F 67.9 °F 30.05 in ENE 5.8 mph 3.9 mph 70% 0.00 in 241.00 W/m2
18:25 77.8 °F 67.6 °F 30.04 in ENE 8.1 mph 3.9 mph 71% 0.00 in 137.00 W/m2
18:36 76.9 °F 67.6 °F 30.04 in ENE 4.6 mph 2.9 mph 73% 0.00 in 102.00 W/m2
18:44 76.4 °F 67.5 °F 30.04 in NNE 4.6 mph 3.6 mph 74% 0.00 in 100.00 W/m2
18:49 75.9 °F 67.4 °F 30.04 in NNE 5.8 mph 0.4 mph 75% 0.00 in 100.00 W/m2
18:54 75.5 °F 67.4 °F 30.04 in NNE 3.5 mph 0.2 mph 76% 0.00 in 162.00 W/m2
18:59 75.3 °F 67.6 °F 30.04 in NE 3.5 mph 1.0 mph 77% 0.00 in 134.00 W/m2
19:04 75.3 °F 67.2 °F 30.04 in NE 8.1 mph 4.0 mph 76% 0.00 in 163.00 W/m2
19:09 75.1 °F 66.6 °F 30.04 in North 6.9 mph 3.4 mph 75% 0.00 in 149.00 W/m2
19:14 74.9 °F 66.8 °F 30.04 in NE 6.9 mph 4.4 mph 76% 0.00 in 100.00 W/m2
19:19 74.5 °F 66.4 °F 30.04 in NE 4.6 mph 0.7 mph 76% 0.00 in 102.00 W/m2
19:24 74.1 °F 66.4 °F 30.05 in NNE 7.0 mph 3.0 mph 77% 0.00 in 70.00 W/m2
19:29 73.7 °F 66.0 °F 30.05 in NNE 3.5 mph 0.2 mph 77% 0.00 in 60.00 W/m2
19:34 73.2 °F 65.9 °F 30.05 in NNE 6.9 mph 0.9 mph 78% 0.00 in 54.00 W/m2
19:39 72.8 °F 65.5 °F 30.05 in NNE 3.5 mph 1.6 mph 78% 0.00 in 46.00 W/m2
19:44 72.4 °F 65.5 °F 30.05 in ENE 4.6 mph 2.2 mph 79% 0.00 in 40.00 W/m2
19:49 72.1 °F 65.6 °F 30.05 in NE 1.2 mph   80% 0.00 in 32.00 W/m2
19:54 71.8 °F 65.3 °F 30.05 in Calm     80% 0.00 in 23.00 W/m2
19:59 71.5 °F 65.0 °F 30.05 in NNE 1.2 mph   80% 0.00 in 16.00 W/m2
20:04 71.1 °F 65.0 °F 30.06 in NNE 3.5 mph 1.3 mph 81% 0.00 in 9.00 W/m2
20:09 70.8 °F 64.7 °F 30.06 in ENE 1.2 mph   81% 0.00 in 5.00 W/m2
20:14 70.5 °F 64.7 °F 30.06 in NE 3.0 mph 0.4 mph 82% 0.00 in 0.00 W/m2
20:19 70.2 °F 64.4 °F 30.06 in Calm   0.6 mph 82% 0.00 in 0.00 W/m2
20:24 70.0 °F 64.6 °F 30.06 in Calm   0.4 mph 83% 0.00 in 0.00 W/m2
20:29 69.7 °F 64.3 °F 30.06 in NE 1.2 mph 0.3 mph 83% 0.00 in 0.00 W/m2
20:34 69.5 °F 64.1 °F 30.06 in Calm     83% 0.00 in 0.00 W/m2
20:39 69.3 °F 64.3 °F 30.06 in NE 2.3 mph 0.3 mph 84% 0.00 in 0.00 W/m2
20:44 69.0 °F 63.6 °F 30.06 in NE 4.6 mph 0.7 mph 83% 0.00 in 0.00 W/m2
20:49 68.9 °F 63.5 °F 30.07 in Calm   0.6 mph 83% 0.00 in 0.00 W/m2
20:54 68.7 °F 63.3 °F 30.07 in NNE 3.5 mph 0.7 mph 83% 0.00 in 0.00 W/m2
20:59 68.5 °F 63.5 °F 30.07 in Calm   0.1 mph 84% 0.00 in 0.00 W/m2
21:04 68.4 °F 63.4 °F 30.07 in Calm   0.3 mph 84% 0.00 in 0.00 W/m2
21:09 68.2 °F 63.2 °F 30.07 in Calm     84% 0.00 in 0.00 W/m2
21:14 68.1 °F 63.4 °F 30.07 in Calm   0.2 mph 85% 0.00 in 0.00 W/m2
21:19 68.0 °F 63.3 °F 30.07 in Calm     85% 0.00 in 0.00 W/m2
21:24 67.9 °F 63.6 °F 30.07 in Calm     86% 0.00 in 0.00 W/m2
21:29 67.7 °F 63.4 °F 30.07 in ENE 3.5 mph 0.3 mph 86% 0.00 in 0.00 W/m2
21:34 67.6 °F 63.3 °F 30.07 in ENE 1.2 mph   86% 0.00 in 0.00 W/m2
21:39 67.5 °F 62.8 °F 30.08 in ENE 1.2 mph 0.1 mph 85% 0.00 in 0.00 W/m2
21:44 67.4 °F 63.1 °F 30.07 in Calm     86% 0.00 in 0.00 W/m2
21:49 67.3 °F 63.0 °F 30.07 in Calm     86% 0.00 in 0.00 W/m2
21:54 67.2 °F 62.9 °F 30.07 in Calm     86% 0.00 in 0.00 W/m2
21:59 67.0 °F 62.7 °F 30.07 in Calm     86% 0.00 in 0.00 W/m2
22:04 66.8 °F 62.1 °F 30.07 in Calm     85% 0.00 in 0.00 W/m2
22:09 66.6 °F 61.9 °F 30.07 in Calm     85% 0.00 in 0.00 W/m2
22:14 66.3 °F 61.7 °F 30.07 in Calm     85% 0.00 in 0.00 W/m2
22:15 66.3 °F 61.7 °F 30.07 in Calm     85% 0.00 in 0.00 W/m2
Bourbonnais, Illinois, USA
Compliments of Weather Underground - 6 mb